<?xml version="1.0" encoding="UTF-8" standalone="no" ?><gpx xmlns="http://www.topografix.com/GPX/1/1" xmlns:gpxx="http://www.garmin.com/xmlschemas/GpxExtensions/v3" xmlns:gpxtrkx="http://www.garmin.com/xmlschemas/TrackStatsExtension/v1" xmlns:wptx1="http://www.garmin.com/xmlschemas/WaypointExtension/v1" xmlns:gpxtpx="http://www.garmin.com/xmlschemas/TrackPointExtension/v1" creator="GPSMAP 64st" version="1.1" xmlns:xsi="http://www.w3.org/2001/XMLSchema-instance" xsi:schemaLocation="http://www.topografix.com/GPX/1/1 http://www.topografix.com/GPX/1/1/gpx.xsd http://www.garmin.com/xmlschemas/GpxExtensions/v3 http://www8.garmin.com/xmlschemas/GpxExtensionsv3.xsd http://www.garmin.com/xmlschemas/TrackStatsExtension/v1 http://www8.garmin.com/xmlschemas/TrackStatsExtension.xsd http://www.garmin.com/xmlschemas/WaypointExtension/v1 http://www8.garmin.com/xmlschemas/WaypointExtensionv1.xsd http://www.garmin.com/xmlschemas/TrackPointExtension/v1 http://www.garmin.com/xmlschemas/TrackPointExtensionv1.xsd"><metadata><link href="http://www.garmin.com"><text>Garmin International</text></link><time>2026-04-26T11:31:19Z</time></metadata><trk><name>2026-04-26 14:31:16</name><extensions><gpxtrkx:TrackStatsExtension><gpxtrkx:Distance>7418.000</gpxtrkx:Distance><gpxtrkx:TotalElapsedTime>13084</gpxtrkx:TotalElapsedTime><gpxtrkx:MovingTime>11002</gpxtrkx:MovingTime><gpxtrkx:StoppedTime>2077</gpxtrkx:StoppedTime><gpxtrkx:MovingSpeed>0.674</gpxtrkx:MovingSpeed><gpxtrkx:MaxSpeed>3.196</gpxtrkx:MaxSpeed><gpxtrkx:MaxElevation>504.059</gpxtrkx:MaxElevation><gpxtrkx:MinElevation>64.946</gpxtrkx:MinElevation><gpxtrkx:Ascent>529.000</gpxtrkx:Ascent><gpxtrkx:Descent>604.360</gpxtrkx:Descent><gpxtrkx:AvgAscentRate>0.118</gpxtrkx:AvgAscentRate><gpxtrkx:MaxAscentRate>0.365</gpxtrkx:MaxAscentRate><gpxtrkx:AvgDescentRate>0.064</gpxtrkx:AvgDescentRate><gpxtrkx:MaxDescentRate>-0.774</gpxtrkx:MaxDescentRate></gpxtrkx:TrackStatsExtension></extensions><trkseg><trkpt lat="59.0567173250" lon="29.9900446180"><ele>72.13</ele><time>2026-04-26T07:53:15Z</time></trkpt><trkpt lat="59.0567161515" lon="29.9900318775"><ele>72.13</ele><time>2026-04-26T07:53:16Z</time></trkpt><trkpt lat="59.0567133017" lon="29.9899927340"><ele>504.05</ele><time>2026-04-26T07:53:19Z</time></trkpt><trkpt lat="59.0567121282" lon="29.9899808317"><ele>504.05</ele><time>2026-04-26T07:53:20Z</time></trkpt><trkpt lat="59.0567117091" lon="29.9899705220"><ele>500.97</ele><time>2026-04-26T07:53:33Z</time></trkpt><trkpt lat="59.0567099489" lon="29.9899626430"><ele>497.91</ele><time>2026-04-26T07:53:46Z</time></trkpt><trkpt lat="59.0567113739" lon="29.9899477232"><ele>494.88</ele><time>2026-04-26T07:53:59Z</time></trkpt><trkpt lat="59.0567161515" lon="29.9899359047"><ele>491.46</ele><time>2026-04-26T07:54:06Z</time></trkpt><trkpt lat="59.0567165706" lon="29.9899323843"><ele>490.78</ele><time>2026-04-26T07:54:08Z</time></trkpt><trkpt lat="59.0567158163" lon="29.9899271037"><ele>487.72</ele><time>2026-04-26T07:54:22Z</time></trkpt><trkpt lat="59.0567145590" lon="29.9899274390"><ele>484.58</ele><time>2026-04-26T07:54:30Z</time></trkpt><trkpt lat="59.0567130502" lon="29.9899280258"><ele>480.34</ele><time>2026-04-26T07:54:34Z</time></trkpt><trkpt lat="59.0567132179" lon="29.9899276905"><ele>480.69</ele><time>2026-04-26T07:54:35Z</time></trkpt><trkpt lat="59.0567149781" lon="29.9899311271"><ele>477.76</ele><time>2026-04-26T07:54:48Z</time></trkpt><trkpt lat="59.0567102004" lon="29.9899510760"><ele>474.74</ele><time>2026-04-26T07:55:04Z</time></trkpt><trkpt lat="59.0567171574" lon="29.9899858609"><ele>471.58</ele><time>2026-04-26T07:55:19Z</time></trkpt><trkpt lat="59.0567194205" lon="29.9899889622"><ele>468.07</ele><time>2026-04-26T07:55:33Z</time></trkpt><trkpt lat="59.0567219350" lon="29.9900017865"><ele>464.89</ele><time>2026-04-26T07:55:51Z</time></trkpt><trkpt lat="59.0567207616" lon="29.9900102522"><ele>461.86</ele><time>2026-04-26T07:56:00Z</time></trkpt><trkpt lat="59.0567174088" lon="29.9900157843"><ele>460.93</ele><time>2026-04-26T07:56:08Z</time></trkpt><trkpt lat="59.0567183308" lon="29.9900212325"><ele>462.13</ele><time>2026-04-26T07:56:12Z</time></trkpt><trkpt lat="59.0567160677" lon="29.9900269322"><ele>459.06</ele><time>2026-04-26T07:56:27Z</time></trkpt><trkpt lat="59.0567187499" lon="29.9900101684"><ele>455.90</ele><time>2026-04-26T07:56:47Z</time></trkpt><trkpt lat="59.0567122959" lon="29.9900311232"><ele>452.87</ele><time>2026-04-26T07:57:06Z</time></trkpt><trkpt lat="59.0567179956" lon="29.9899812508"><ele>450.99</ele><time>2026-04-26T07:57:17Z</time></trkpt><trkpt lat="59.0567190852" lon="29.9899164587"><ele>450.52</ele><time>2026-04-26T07:57:20Z</time></trkpt><trkpt lat="59.0566856414" lon="29.9893864710"><ele>447.23</ele><time>2026-04-26T07:57:43Z</time></trkpt><trkpt lat="59.0566957835" lon="29.9892153125"><ele>444.88</ele><time>2026-04-26T07:58:00Z</time></trkpt><trkpt lat="59.0566977952" lon="29.9892946053"><ele>443.75</ele><time>2026-04-26T07:58:13Z</time></trkpt><trkpt lat="59.0567002259" lon="29.9893578887"><ele>442.36</ele><time>2026-04-26T07:58:27Z</time></trkpt><trkpt lat="59.0567443985" lon="29.9898043089"><ele>440.14</ele><time>2026-04-26T07:58:48Z</time></trkpt><trkpt lat="59.0568174049" lon="29.9898836017"><ele>438.92</ele><time>2026-04-26T07:59:02Z</time></trkpt><trkpt lat="59.0568542853" lon="29.9898055661"><ele>437.35</ele><time>2026-04-26T07:59:14Z</time></trkpt><trkpt lat="59.0568843763" lon="29.9898321368"><ele>436.71</ele><time>2026-04-26T07:59:26Z</time></trkpt><trkpt lat="59.0569342487" lon="29.9897589628"><ele>435.17</ele><time>2026-04-26T07:59:39Z</time></trkpt><trkpt lat="59.0569257829" lon="29.9896457233"><ele>433.61</ele><time>2026-04-26T07:59:51Z</time></trkpt><trkpt lat="59.0568968654" lon="29.9895745609"><ele>432.62</ele><time>2026-04-26T08:00:03Z</time></trkpt><trkpt lat="59.0568666067" lon="29.9895215873"><ele>430.72</ele><time>2026-04-26T08:00:16Z</time></trkpt><trkpt lat="59.0568749048" lon="29.9894980341"><ele>428.43</ele><time>2026-04-26T08:00:29Z</time></trkpt><trkpt lat="59.0569055825" lon="29.9894882273"><ele>425.71</ele><time>2026-04-26T08:00:44Z</time></trkpt><trkpt lat="59.0569142159" lon="29.9894589745"><ele>422.59</ele><time>2026-04-26T08:00:57Z</time></trkpt><trkpt lat="59.0569337457" lon="29.9894096889"><ele>420.99</ele><time>2026-04-26T08:01:10Z</time></trkpt><trkpt lat="59.0569262858" lon="29.9893251155"><ele>418.19</ele><time>2026-04-26T08:01:23Z</time></trkpt><trkpt lat="59.0569345839" lon="29.9892767519"><ele>416.82</ele><time>2026-04-26T08:01:35Z</time></trkpt><trkpt lat="59.0569244418" lon="29.9892235268"><ele>414.38</ele><time>2026-04-26T08:01:46Z</time></trkpt><trkpt lat="59.0569116175" lon="29.9891223572"><ele>412.39</ele><time>2026-04-26T08:01:56Z</time></trkpt><trkpt lat="59.0568963625" lon="29.9890869856"><ele>408.79</ele><time>2026-04-26T08:02:13Z</time></trkpt><trkpt lat="59.0569044929" lon="29.9890703894"><ele>407.96</ele><time>2026-04-26T08:02:25Z</time></trkpt><trkpt lat="59.0569118690" lon="29.9890186731"><ele>405.29</ele><time>2026-04-26T08:02:39Z</time></trkpt><trkpt lat="59.0569023974" lon="29.9889694713"><ele>404.40</ele><time>2026-04-26T08:02:49Z</time></trkpt><trkpt lat="59.0569220949" lon="29.9889610894"><ele>401.32</ele><time>2026-04-26T08:03:06Z</time></trkpt><trkpt lat="59.0569265373" lon="29.9889361952"><ele>400.24</ele><time>2026-04-26T08:03:19Z</time></trkpt><trkpt lat="59.0569558740" lon="29.9888676312"><ele>398.70</ele><time>2026-04-26T08:03:32Z</time></trkpt><trkpt lat="59.0569720510" lon="29.9888698105"><ele>396.00</ele><time>2026-04-26T08:03:52Z</time></trkpt><trkpt lat="59.0569964424" lon="29.9888799526"><ele>392.95</ele><time>2026-04-26T08:04:07Z</time></trkpt><trkpt lat="59.0570024773" lon="29.9888075329"><ele>390.31</ele><time>2026-04-26T08:04:25Z</time></trkpt><trkpt lat="59.0569857135" lon="29.9887643661"><ele>387.10</ele><time>2026-04-26T08:04:44Z</time></trkpt><trkpt lat="59.0569724701" lon="29.9887041841"><ele>384.98</ele><time>2026-04-26T08:05:01Z</time></trkpt><trkpt lat="59.0569759905" lon="29.9886993226"><ele>383.30</ele><time>2026-04-26T08:05:12Z</time></trkpt><trkpt lat="59.0569827799" lon="29.9887051899"><ele>381.01</ele><time>2026-04-26T08:05:28Z</time></trkpt><trkpt lat="59.0569837019" lon="29.9886980653"><ele>378.50</ele><time>2026-04-26T08:05:43Z</time></trkpt><trkpt lat="59.0569848754" lon="29.9886914436"><ele>374.80</ele><time>2026-04-26T08:05:44Z</time></trkpt><trkpt lat="59.0569818579" lon="29.9886895157"><ele>377.50</ele><time>2026-04-26T08:05:47Z</time></trkpt><trkpt lat="59.0570101049" lon="29.9886913598"><ele>374.84</ele><time>2026-04-26T08:06:02Z</time></trkpt><trkpt lat="59.0570028126" lon="29.9886841513"><ele>373.83</ele><time>2026-04-26T08:06:18Z</time></trkpt><trkpt lat="59.0570053272" lon="29.9886885099"><ele>372.24</ele><time>2026-04-26T08:06:27Z</time></trkpt><trkpt lat="59.0570364241" lon="29.9886598438"><ele>369.22</ele><time>2026-04-26T08:06:45Z</time></trkpt><trkpt lat="59.0570459794" lon="29.9886360392"><ele>368.03</ele><time>2026-04-26T08:06:57Z</time></trkpt><trkpt lat="59.0570215881" lon="29.9885778688"><ele>365.03</ele><time>2026-04-26T08:07:10Z</time></trkpt><trkpt lat="59.0570223425" lon="29.9885437544"><ele>363.21</ele><time>2026-04-26T08:07:25Z</time></trkpt><trkpt lat="59.0570258629" lon="29.9885129090"><ele>359.99</ele><time>2026-04-26T08:07:52Z</time></trkpt><trkpt lat="59.0570307244" lon="29.9884894397"><ele>359.76</ele><time>2026-04-26T08:07:54Z</time></trkpt><trkpt lat="59.0569789242" lon="29.9883278366"><ele>357.43</ele><time>2026-04-26T08:08:08Z</time></trkpt><trkpt lat="59.0569379367" lon="29.9881588574"><ele>355.50</ele><time>2026-04-26T08:08:23Z</time></trkpt><trkpt lat="59.0569111146" lon="29.9880809896"><ele>354.01</ele><time>2026-04-26T08:08:37Z</time></trkpt><trkpt lat="59.0568977874" lon="29.9880609568"><ele>353.76</ele><time>2026-04-26T08:08:40Z</time></trkpt><trkpt lat="59.0568903275" lon="29.9880369846"><ele>352.69</ele><time>2026-04-26T08:08:49Z</time></trkpt><trkpt lat="59.0569159761" lon="29.9879651517"><ele>351.13</ele><time>2026-04-26T08:09:03Z</time></trkpt><trkpt lat="59.0569334105" lon="29.9879705161"><ele>347.95</ele><time>2026-04-26T08:09:20Z</time></trkpt><trkpt lat="59.0570375137" lon="29.9879376590"><ele>345.70</ele><time>2026-04-26T08:09:35Z</time></trkpt><trkpt lat="59.0571453050" lon="29.9879181292"><ele>343.39</ele><time>2026-04-26T08:09:49Z</time></trkpt><trkpt lat="59.0571945906" lon="29.9877863657"><ele>341.40</ele><time>2026-04-26T08:10:03Z</time></trkpt><trkpt lat="59.0572373383" lon="29.9877516646"><ele>340.27</ele><time>2026-04-26T08:10:15Z</time></trkpt><trkpt lat="59.0572741348" lon="29.9876978528"><ele>338.96</ele><time>2026-04-26T08:10:27Z</time></trkpt><trkpt lat="59.0572840255" lon="29.9875970185"><ele>337.08</ele><time>2026-04-26T08:10:40Z</time></trkpt><trkpt lat="59.0573263541" lon="29.9875905644"><ele>335.43</ele><time>2026-04-26T08:10:54Z</time></trkpt><trkpt lat="59.0573241748" lon="29.9875805061"><ele>334.94</ele><time>2026-04-26T08:10:58Z</time></trkpt><trkpt lat="59.0573471412" lon="29.9875788298"><ele>334.48</ele><time>2026-04-26T08:11:03Z</time></trkpt><trkpt lat="59.0573738795" lon="29.9875936657"><ele>330.66</ele><time>2026-04-26T08:11:13Z</time></trkpt><trkpt lat="59.0574254282" lon="29.9876123574"><ele>330.56</ele><time>2026-04-26T08:11:26Z</time></trkpt><trkpt lat="59.0574720316" lon="29.9875453860"><ele>328.61</ele><time>2026-04-26T08:11:44Z</time></trkpt><trkpt lat="59.0575369913" lon="29.9874969386"><ele>325.75</ele><time>2026-04-26T08:12:03Z</time></trkpt><trkpt lat="59.0576265100" lon="29.9874289613"><ele>323.81</ele><time>2026-04-26T08:12:19Z</time></trkpt><trkpt lat="59.0576639771" lon="29.9872842059"><ele>321.73</ele><time>2026-04-26T08:12:34Z</time></trkpt><trkpt lat="59.0576713532" lon="29.9872664362"><ele>320.68</ele><time>2026-04-26T08:12:36Z</time></trkpt><trkpt lat="59.0576939844" lon="29.9872644246"><ele>320.54</ele><time>2026-04-26T08:12:42Z</time></trkpt><trkpt lat="59.0577090718" lon="29.9872293044"><ele>320.39</ele><time>2026-04-26T08:12:49Z</time></trkpt><trkpt lat="59.0577665716" lon="29.9871685356"><ele>319.50</ele><time>2026-04-26T08:13:05Z</time></trkpt><trkpt lat="59.0577927232" lon="29.9870872311"><ele>316.26</ele><time>2026-04-26T08:13:18Z</time></trkpt><trkpt lat="59.0578162763" lon="29.9870303180"><ele>315.89</ele><time>2026-04-26T08:13:29Z</time></trkpt><trkpt lat="59.0578304417" lon="29.9870283064"><ele>312.83</ele><time>2026-04-26T08:13:48Z</time></trkpt><trkpt lat="59.0578488819" lon="29.9870682880"><ele>309.34</ele><time>2026-04-26T08:14:09Z</time></trkpt><trkpt lat="59.0578473732" lon="29.9870739039"><ele>309.34</ele><time>2026-04-26T08:14:10Z</time></trkpt><trkpt lat="59.0578455292" lon="29.9870837945"><ele>306.30</ele><time>2026-04-26T08:14:25Z</time></trkpt><trkpt lat="59.0578471217" lon="29.9870743230"><ele>305.67</ele><time>2026-04-26T08:14:27Z</time></trkpt><trkpt lat="59.0579125844" lon="29.9869953655"><ele>302.77</ele><time>2026-04-26T08:14:43Z</time></trkpt><trkpt lat="59.0579681564" lon="29.9870126322"><ele>300.38</ele><time>2026-04-26T08:14:59Z</time></trkpt><trkpt lat="59.0580488741" lon="29.9869505223"><ele>298.44</ele><time>2026-04-26T08:15:16Z</time></trkpt><trkpt lat="59.0580919571" lon="29.9868513644"><ele>295.65</ele><time>2026-04-26T08:15:32Z</time></trkpt><trkpt lat="59.0581515525" lon="29.9867884163"><ele>293.43</ele><time>2026-04-26T08:15:50Z</time></trkpt><trkpt lat="59.0582303423" lon="29.9867066927"><ele>291.13</ele><time>2026-04-26T08:16:06Z</time></trkpt><trkpt lat="59.0583295841" lon="29.9866272323"><ele>288.40</ele><time>2026-04-26T08:16:27Z</time></trkpt><trkpt lat="59.0583281592" lon="29.9866187666"><ele>287.14</ele><time>2026-04-26T08:16:30Z</time></trkpt><trkpt lat="59.0583620220" lon="29.9864406511"><ele>285.56</ele><time>2026-04-26T08:16:46Z</time></trkpt><trkpt lat="59.0584444162" lon="29.9863694049"><ele>282.55</ele><time>2026-04-26T08:17:07Z</time></trkpt><trkpt lat="59.0585356113" lon="29.9863738474"><ele>280.49</ele><time>2026-04-26T08:17:25Z</time></trkpt><trkpt lat="59.0586509462" lon="29.9862905312"><ele>278.36</ele><time>2026-04-26T08:17:44Z</time></trkpt><trkpt lat="59.0586909279" lon="29.9862083048"><ele>276.02</ele><time>2026-04-26T08:18:01Z</time></trkpt><trkpt lat="59.0586877428" lon="29.9861762021"><ele>271.89</ele><time>2026-04-26T08:18:23Z</time></trkpt><trkpt lat="59.0586865693" lon="29.9861754477"><ele>271.80</ele><time>2026-04-26T08:18:24Z</time></trkpt><trkpt lat="59.0587241203" lon="29.9861643836"><ele>269.12</ele><time>2026-04-26T08:18:40Z</time></trkpt><trkpt lat="59.0588205960" lon="29.9861105718"><ele>267.34</ele><time>2026-04-26T08:19:03Z</time></trkpt><trkpt lat="59.0588653553" lon="29.9860285968"><ele>266.25</ele><time>2026-04-26T08:19:14Z</time></trkpt><trkpt lat="59.0589440614" lon="29.9859612063"><ele>263.65</ele><time>2026-04-26T08:19:32Z</time></trkpt><trkpt lat="59.0590218455" lon="29.9858700112"><ele>262.16</ele><time>2026-04-26T08:19:48Z</time></trkpt><trkpt lat="59.0590810217" lon="29.9858483858"><ele>260.42</ele><time>2026-04-26T08:20:06Z</time></trkpt><trkpt lat="59.0591533575" lon="29.9858231563"><ele>258.14</ele><time>2026-04-26T08:20:22Z</time></trkpt><trkpt lat="59.0592325665" lon="29.9856550992"><ele>256.56</ele><time>2026-04-26T08:20:39Z</time></trkpt><trkpt lat="59.0592976101" lon="29.9855710287"><ele>255.28</ele><time>2026-04-26T08:20:57Z</time></trkpt><trkpt lat="59.0593911521" lon="29.9855343159"><ele>253.96</ele><time>2026-04-26T08:21:12Z</time></trkpt><trkpt lat="59.0594286192" lon="29.9855628982"><ele>252.45</ele><time>2026-04-26T08:21:27Z</time></trkpt><trkpt lat="59.0594686847" lon="29.9855556060"><ele>251.16</ele><time>2026-04-26T08:21:46Z</time></trkpt><trkpt lat="59.0594577882" lon="29.9855806679"><ele>248.00</ele><time>2026-04-26T08:22:01Z</time></trkpt><trkpt lat="59.0594578721" lon="29.9855815899"><ele>247.89</ele><time>2026-04-26T08:22:02Z</time></trkpt><trkpt lat="59.0594611410" lon="29.9855369981"><ele>246.40</ele><time>2026-04-26T08:22:26Z</time></trkpt><trkpt lat="59.0594907291" lon="29.9855139479"><ele>243.31</ele><time>2026-04-26T08:22:38Z</time></trkpt><trkpt lat="59.0595805831" lon="29.9854263570"><ele>242.08</ele><time>2026-04-26T08:22:56Z</time></trkpt><trkpt lat="59.0596231632" lon="29.9852875527"><ele>239.04</ele><time>2026-04-26T08:23:12Z</time></trkpt><trkpt lat="59.0596247558" lon="29.9851642549"><ele>239.30</ele><time>2026-04-26T08:23:28Z</time></trkpt><trkpt lat="59.0596731193" lon="29.9851020612"><ele>238.12</ele><time>2026-04-26T08:23:45Z</time></trkpt><trkpt lat="59.0597567707" lon="29.9850142188"><ele>236.54</ele><time>2026-04-26T08:24:06Z</time></trkpt><trkpt lat="59.0599000175" lon="29.9848972913"><ele>235.16</ele><time>2026-04-26T08:24:26Z</time></trkpt><trkpt lat="59.0600117482" lon="29.9848407134"><ele>234.39</ele><time>2026-04-26T08:24:45Z</time></trkpt><trkpt lat="59.0601116605" lon="29.9847347662"><ele>234.25</ele><time>2026-04-26T08:25:03Z</time></trkpt><trkpt lat="59.0601834934" lon="29.9847350176"><ele>233.50</ele><time>2026-04-26T08:25:24Z</time></trkpt><trkpt lat="59.0602314379" lon="29.9846496060"><ele>232.80</ele><time>2026-04-26T08:25:40Z</time></trkpt><trkpt lat="59.0602554101" lon="29.9846107140"><ele>231.66</ele><time>2026-04-26T08:25:55Z</time></trkpt><trkpt lat="59.0602859203" lon="29.9845795333"><ele>230.35</ele><time>2026-04-26T08:26:12Z</time></trkpt><trkpt lat="59.0602880158" lon="29.9846153241"><ele>228.86</ele><time>2026-04-26T08:26:38Z</time></trkpt><trkpt lat="59.0602901950" lon="29.9845992308"><ele>229.42</ele><time>2026-04-26T08:26:43Z</time></trkpt><trkpt lat="59.0602680668" lon="29.9845742527"><ele>228.29</ele><time>2026-04-26T08:26:57Z</time></trkpt><trkpt lat="59.0602993313" lon="29.9844860751"><ele>228.39</ele><time>2026-04-26T08:27:16Z</time></trkpt><trkpt lat="59.0603663027" lon="29.9844727479"><ele>227.73</ele><time>2026-04-26T08:27:34Z</time></trkpt><trkpt lat="59.0604212880" lon="29.9844709877"><ele>227.35</ele><time>2026-04-26T08:27:46Z</time></trkpt><trkpt lat="59.0605151653" lon="29.9843768589"><ele>227.30</ele><time>2026-04-26T08:28:04Z</time></trkpt><trkpt lat="59.0605786163" lon="29.9843569938"><ele>226.98</ele><time>2026-04-26T08:28:19Z</time></trkpt><trkpt lat="59.0606791154" lon="29.9843810499"><ele>225.75</ele><time>2026-04-26T08:28:37Z</time></trkpt><trkpt lat="59.0607486013" lon="29.9843954667"><ele>224.84</ele><time>2026-04-26T08:28:55Z</time></trkpt><trkpt lat="59.0608374495" lon="29.9844357837"><ele>223.77</ele><time>2026-04-26T08:29:12Z</time></trkpt><trkpt lat="59.0609217715" lon="29.9844630249"><ele>222.37</ele><time>2026-04-26T08:29:27Z</time></trkpt><trkpt lat="59.0610256232" lon="29.9844904337"><ele>221.60</ele><time>2026-04-26T08:29:45Z</time></trkpt><trkpt lat="59.0611623321" lon="29.9844994023"><ele>220.21</ele><time>2026-04-26T08:30:05Z</time></trkpt><trkpt lat="59.0612365957" lon="29.9845439941"><ele>218.92</ele><time>2026-04-26T08:30:22Z</time></trkpt><trkpt lat="59.0613240190" lon="29.9845368695"><ele>217.65</ele><time>2026-04-26T08:30:39Z</time></trkpt><trkpt lat="59.0613918286" lon="29.9845627695"><ele>216.49</ele><time>2026-04-26T08:30:58Z</time></trkpt><trkpt lat="59.0613938402" lon="29.9845669605"><ele>215.24</ele><time>2026-04-26T08:31:07Z</time></trkpt><trkpt lat="59.0613920800" lon="29.9845649488"><ele>215.07</ele><time>2026-04-26T08:31:10Z</time></trkpt><trkpt lat="59.0613948461" lon="29.9845574889"><ele>213.73</ele><time>2026-04-26T08:31:24Z</time></trkpt><trkpt lat="59.0614045691" lon="29.9845499452"><ele>210.76</ele><time>2026-04-26T08:31:48Z</time></trkpt><trkpt lat="59.0614016354" lon="29.9845687207"><ele>207.95</ele><time>2026-04-26T08:31:58Z</time></trkpt><trkpt lat="59.0613987856" lon="29.9845564831"><ele>206.87</ele><time>2026-04-26T08:32:08Z</time></trkpt><trkpt lat="59.0614039823" lon="29.9845039286"><ele>206.64</ele><time>2026-04-26T08:32:11Z</time></trkpt><trkpt lat="59.0614032280" lon="29.9845587462"><ele>204.94</ele><time>2026-04-26T08:32:16Z</time></trkpt><trkpt lat="59.0614271164" lon="29.9845850654"><ele>201.81</ele><time>2026-04-26T08:32:36Z</time></trkpt><trkpt lat="59.0614266973" lon="29.9845882505"><ele>198.75</ele><time>2026-04-26T08:32:52Z</time></trkpt><trkpt lat="59.0614297986" lon="29.9845863227"><ele>195.65</ele><time>2026-04-26T08:33:11Z</time></trkpt><trkpt lat="59.0615085047" lon="29.9845533818"><ele>193.57</ele><time>2026-04-26T08:33:26Z</time></trkpt><trkpt lat="59.0615349077" lon="29.9845304154"><ele>191.34</ele><time>2026-04-26T08:33:35Z</time></trkpt><trkpt lat="59.0615563653" lon="29.9845403899"><ele>189.03</ele><time>2026-04-26T08:33:44Z</time></trkpt><trkpt lat="59.0615893062" lon="29.9845403060"><ele>187.94</ele><time>2026-04-26T08:33:55Z</time></trkpt><trkpt lat="59.0616396815" lon="29.9845381267"><ele>186.29</ele><time>2026-04-26T08:34:11Z</time></trkpt><trkpt lat="59.0616801661" lon="29.9845206924"><ele>184.82</ele><time>2026-04-26T08:34:25Z</time></trkpt><trkpt lat="59.0617048088" lon="29.9845037609"><ele>183.16</ele><time>2026-04-26T08:34:35Z</time></trkpt><trkpt lat="59.0617085807" lon="29.9843892641"><ele>182.09</ele><time>2026-04-26T08:34:40Z</time></trkpt><trkpt lat="59.0617395099" lon="29.9843544792"><ele>179.94</ele><time>2026-04-26T08:34:56Z</time></trkpt><trkpt lat="59.0617980156" lon="29.9842832331"><ele>177.87</ele><time>2026-04-26T08:35:09Z</time></trkpt><trkpt lat="59.0618237481" lon="29.9841864221"><ele>175.09</ele><time>2026-04-26T08:35:23Z</time></trkpt><trkpt lat="59.0618271008" lon="29.9841751065"><ele>174.84</ele><time>2026-04-26T08:35:30Z</time></trkpt><trkpt lat="59.0618396737" lon="29.9841172714"><ele>173.71</ele><time>2026-04-26T08:35:34Z</time></trkpt><trkpt lat="59.0618478041" lon="29.9840747751"><ele>173.08</ele><time>2026-04-26T08:35:37Z</time></trkpt><trkpt lat="59.0618880372" lon="29.9840150122"><ele>171.66</ele><time>2026-04-26T08:35:48Z</time></trkpt><trkpt lat="59.0619825851" lon="29.9840317760"><ele>168.71</ele><time>2026-04-26T08:36:04Z</time></trkpt><trkpt lat="59.0621099062" lon="29.9840191193"><ele>167.36</ele><time>2026-04-26T08:36:19Z</time></trkpt><trkpt lat="59.0621923842" lon="29.9840650521"><ele>165.93</ele><time>2026-04-26T08:36:33Z</time></trkpt><trkpt lat="59.0622960683" lon="29.9841050338"><ele>164.78</ele><time>2026-04-26T08:36:51Z</time></trkpt><trkpt lat="59.0622956492" lon="29.9841405731"><ele>163.44</ele><time>2026-04-26T08:37:06Z</time></trkpt><trkpt lat="59.0622822382" lon="29.9841744360"><ele>161.43</ele><time>2026-04-26T08:37:25Z</time></trkpt><trkpt lat="59.0623207111" lon="29.9841588456"><ele>159.92</ele><time>2026-04-26T08:37:43Z</time></trkpt><trkpt lat="59.0624170192" lon="29.9841155112"><ele>158.80</ele><time>2026-04-26T08:37:59Z</time></trkpt><trkpt lat="59.0625215415" lon="29.9840123300"><ele>156.94</ele><time>2026-04-26T08:38:17Z</time></trkpt><trkpt lat="59.0626036841" lon="29.9840163533"><ele>156.29</ele><time>2026-04-26T08:38:34Z</time></trkpt><trkpt lat="59.0627339389" lon="29.9840425886"><ele>156.20</ele><time>2026-04-26T08:38:49Z</time></trkpt><trkpt lat="59.0628753416" lon="29.9840689916"><ele>155.57</ele><time>2026-04-26T08:39:08Z</time></trkpt><trkpt lat="59.0629651118" lon="29.9840112403"><ele>155.16</ele><time>2026-04-26T08:39:26Z</time></trkpt><trkpt lat="59.0630101226" lon="29.9839832447"><ele>154.86</ele><time>2026-04-26T08:39:33Z</time></trkpt><trkpt lat="59.0630796924" lon="29.9839592725"><ele>154.64</ele><time>2026-04-26T08:39:47Z</time></trkpt><trkpt lat="59.0631304868" lon="29.9839634635"><ele>154.77</ele><time>2026-04-26T08:40:01Z</time></trkpt><trkpt lat="59.0632060077" lon="29.9839928001"><ele>154.65</ele><time>2026-04-26T08:40:16Z</time></trkpt><trkpt lat="59.0632503480" lon="29.9839104060"><ele>154.42</ele><time>2026-04-26T08:40:33Z</time></trkpt><trkpt lat="59.0632661898" lon="29.9839076400"><ele>154.35</ele><time>2026-04-26T08:40:48Z</time></trkpt><trkpt lat="59.0632704645" lon="29.9839593563"><ele>152.38</ele><time>2026-04-26T08:41:15Z</time></trkpt><trkpt lat="59.0632977057" lon="29.9839246552"><ele>150.73</ele><time>2026-04-26T08:41:32Z</time></trkpt><trkpt lat="59.0634186566" lon="29.9839284271"><ele>149.88</ele><time>2026-04-26T08:41:50Z</time></trkpt><trkpt lat="59.0635066666" lon="29.9838703405"><ele>149.62</ele><time>2026-04-26T08:42:06Z</time></trkpt><trkpt lat="59.0635969397" lon="29.9838689156"><ele>148.80</ele><time>2026-04-26T08:42:20Z</time></trkpt><trkpt lat="59.0637081675" lon="29.9839716777"><ele>148.59</ele><time>2026-04-26T08:42:39Z</time></trkpt><trkpt lat="59.0638114326" lon="29.9840564188"><ele>149.47</ele><time>2026-04-26T08:42:55Z</time></trkpt><trkpt lat="59.0639464650" lon="29.9840953108"><ele>149.73</ele><time>2026-04-26T08:43:14Z</time></trkpt><trkpt lat="59.0640094969" lon="29.9841288384"><ele>149.74</ele><time>2026-04-26T08:43:28Z</time></trkpt><trkpt lat="59.0640875325" lon="29.9841897748"><ele>149.80</ele><time>2026-04-26T08:43:41Z</time></trkpt><trkpt lat="59.0641905461" lon="29.9841965642"><ele>150.34</ele><time>2026-04-26T08:43:56Z</time></trkpt><trkpt lat="59.0641872771" lon="29.9841935467"><ele>151.87</ele><time>2026-04-26T08:44:13Z</time></trkpt><trkpt lat="59.0642042924" lon="29.9842188600"><ele>153.17</ele><time>2026-04-26T08:44:49Z</time></trkpt><trkpt lat="59.0642096568" lon="29.9841462728"><ele>153.54</ele><time>2026-04-26T08:45:10Z</time></trkpt><trkpt lat="59.0642052982" lon="29.9841386452"><ele>153.24</ele><time>2026-04-26T08:45:37Z</time></trkpt><trkpt lat="59.0642586071" lon="29.9841639586"><ele>152.74</ele><time>2026-04-26T08:45:50Z</time></trkpt><trkpt lat="59.0643646382" lon="29.9842364620"><ele>151.94</ele><time>2026-04-26T08:46:05Z</time></trkpt><trkpt lat="59.0643798932" lon="29.9842487834"><ele>151.89</ele><time>2026-04-26T08:46:07Z</time></trkpt><trkpt lat="59.0644575935" lon="29.9842313491"><ele>151.20</ele><time>2026-04-26T08:46:19Z</time></trkpt><trkpt lat="59.0644783806" lon="29.9842064548"><ele>151.38</ele><time>2026-04-26T08:46:34Z</time></trkpt><trkpt lat="59.0645124950" lon="29.9842394795"><ele>151.37</ele><time>2026-04-26T08:46:57Z</time></trkpt><trkpt lat="59.0645451006" lon="29.9842846580"><ele>150.82</ele><time>2026-04-26T08:47:11Z</time></trkpt><trkpt lat="59.0646743495" lon="29.9842834845"><ele>150.18</ele><time>2026-04-26T08:47:28Z</time></trkpt><trkpt lat="59.0647664666" lon="29.9843431637"><ele>149.45</ele><time>2026-04-26T08:47:44Z</time></trkpt><trkpt lat="59.0649397206" lon="29.9844191875"><ele>148.48</ele><time>2026-04-26T08:48:08Z</time></trkpt><trkpt lat="59.0650650300" lon="29.9844011664"><ele>147.23</ele><time>2026-04-26T08:48:27Z</time></trkpt><trkpt lat="59.0650892537" lon="29.9844120629"><ele>146.50</ele><time>2026-04-26T08:48:43Z</time></trkpt><trkpt lat="59.0650924388" lon="29.9844236299"><ele>144.86</ele><time>2026-04-26T08:49:08Z</time></trkpt><trkpt lat="59.0651066042" lon="29.9843927007"><ele>142.69</ele><time>2026-04-26T08:49:35Z</time></trkpt><trkpt lat="59.0652141441" lon="29.9844144098"><ele>141.18</ele><time>2026-04-26T08:49:49Z</time></trkpt><trkpt lat="59.0652646869" lon="29.9844355322"><ele>140.99</ele><time>2026-04-26T08:49:57Z</time></trkpt><trkpt lat="59.0653337538" lon="29.9844844826"><ele>140.51</ele><time>2026-04-26T08:50:12Z</time></trkpt><trkpt lat="59.0654048324" lon="29.9845356122"><ele>140.06</ele><time>2026-04-26T08:50:25Z</time></trkpt><trkpt lat="59.0654097777" lon="29.9845570698"><ele>139.73</ele><time>2026-04-26T08:50:28Z</time></trkpt><trkpt lat="59.0655014757" lon="29.9846004043"><ele>139.92</ele><time>2026-04-26T08:50:43Z</time></trkpt><trkpt lat="59.0656096861" lon="29.9845938664"><ele>139.79</ele><time>2026-04-26T08:50:59Z</time></trkpt><trkpt lat="59.0656460635" lon="29.9845954590"><ele>140.25</ele><time>2026-04-26T08:51:14Z</time></trkpt><trkpt lat="59.0657353308" lon="29.9845947884"><ele>139.76</ele><time>2026-04-26T08:51:30Z</time></trkpt><trkpt lat="59.0658337343" lon="29.9846926052"><ele>140.36</ele><time>2026-04-26T08:51:46Z</time></trkpt><trkpt lat="59.0659370832" lon="29.9847175833"><ele>139.95</ele><time>2026-04-26T08:52:03Z</time></trkpt><trkpt lat="59.0660714451" lon="29.9847311620"><ele>140.77</ele><time>2026-04-26T08:52:22Z</time></trkpt><trkpt lat="59.0661537554" lon="29.9846571498"><ele>141.05</ele><time>2026-04-26T08:52:39Z</time></trkpt><trkpt lat="59.0661449544" lon="29.9846822955"><ele>141.83</ele><time>2026-04-26T08:52:51Z</time></trkpt><trkpt lat="59.0661404282" lon="29.9846912641"><ele>139.92</ele><time>2026-04-26T08:53:12Z</time></trkpt><trkpt lat="59.0661276877" lon="29.9846892525"><ele>139.99</ele><time>2026-04-26T08:53:32Z</time></trkpt><trkpt lat="59.0661789011" lon="29.9847120512"><ele>139.59</ele><time>2026-04-26T08:53:46Z</time></trkpt><trkpt lat="59.0663076472" lon="29.9847752508"><ele>138.70</ele><time>2026-04-26T08:54:04Z</time></trkpt><trkpt lat="59.0664285980" lon="29.9848071020"><ele>138.73</ele><time>2026-04-26T08:54:22Z</time></trkpt><trkpt lat="59.0665429272" lon="29.9849142227"><ele>139.14</ele><time>2026-04-26T08:54:38Z</time></trkpt><trkpt lat="59.0666270815" lon="29.9849236943"><ele>139.04</ele><time>2026-04-26T08:54:51Z</time></trkpt><trkpt lat="59.0667692386" lon="29.9849626701"><ele>138.93</ele><time>2026-04-26T08:55:08Z</time></trkpt><trkpt lat="59.0668793768" lon="29.9849691242"><ele>139.46</ele><time>2026-04-26T08:55:24Z</time></trkpt><trkpt lat="59.0669419896" lon="29.9849965330"><ele>139.91</ele><time>2026-04-26T08:55:32Z</time></trkpt><trkpt lat="59.0670384653" lon="29.9850233551"><ele>140.69</ele><time>2026-04-26T08:55:47Z</time></trkpt><trkpt lat="59.0670745913" lon="29.9850541167"><ele>140.62</ele><time>2026-04-26T08:55:53Z</time></trkpt><trkpt lat="59.0671874955" lon="29.9851132929"><ele>141.88</ele><time>2026-04-26T08:56:10Z</time></trkpt><trkpt lat="59.0672773495" lon="29.9851573817"><ele>142.14</ele><time>2026-04-26T08:56:25Z</time></trkpt><trkpt lat="59.0673633479" lon="29.9852255266"><ele>141.99</ele><time>2026-04-26T08:56:39Z</time></trkpt><trkpt lat="59.0673853084" lon="29.9852280412"><ele>141.74</ele><time>2026-04-26T08:56:53Z</time></trkpt><trkpt lat="59.0673737414" lon="29.9852594733"><ele>141.39</ele><time>2026-04-26T08:57:09Z</time></trkpt><trkpt lat="59.0673656110" lon="29.9852510914"><ele>139.23</ele><time>2026-04-26T08:57:29Z</time></trkpt><trkpt lat="59.0674366895" lon="29.9852417875"><ele>139.05</ele><time>2026-04-26T08:57:51Z</time></trkpt><trkpt lat="59.0675385296" lon="29.9851144664"><ele>138.86</ele><time>2026-04-26T08:58:06Z</time></trkpt><trkpt lat="59.0676156431" lon="29.9849824514"><ele>138.96</ele><time>2026-04-26T08:58:20Z</time></trkpt><trkpt lat="59.0676684491" lon="29.9849887379"><ele>139.19</ele><time>2026-04-26T08:58:35Z</time></trkpt><trkpt lat="59.0676725563" lon="29.9850049149"><ele>138.66</ele><time>2026-04-26T08:58:56Z</time></trkpt><trkpt lat="59.0676961932" lon="29.9849935155"><ele>137.57</ele><time>2026-04-26T08:59:15Z</time></trkpt><trkpt lat="59.0676987078" lon="29.9849699624"><ele>136.88</ele><time>2026-04-26T08:59:36Z</time></trkpt><trkpt lat="59.0676930081" lon="29.9849738181"><ele>136.67</ele><time>2026-04-26T08:59:51Z</time></trkpt><trkpt lat="59.0676916670" lon="29.9849674478"><ele>136.97</ele><time>2026-04-26T09:00:08Z</time></trkpt><trkpt lat="59.0677948482" lon="29.9849636760"><ele>135.38</ele><time>2026-04-26T09:00:23Z</time></trkpt><trkpt lat="59.0678784996" lon="29.9850346707"><ele>134.81</ele><time>2026-04-26T09:00:40Z</time></trkpt><trkpt lat="59.0679483209" lon="29.9851806834"><ele>134.03</ele><time>2026-04-26T09:00:57Z</time></trkpt><trkpt lat="59.0680147894" lon="29.9851986207"><ele>132.89</ele><time>2026-04-26T09:01:10Z</time></trkpt><trkpt lat="59.0680775698" lon="29.9852789193"><ele>132.03</ele><time>2026-04-26T09:01:26Z</time></trkpt><trkpt lat="59.0681315493" lon="29.9853603076"><ele>131.09</ele><time>2026-04-26T09:01:42Z</time></trkpt><trkpt lat="59.0682026278" lon="29.9854277819"><ele>129.99</ele><time>2026-04-26T09:01:59Z</time></trkpt><trkpt lat="59.0682216547" lon="29.9854349904"><ele>128.98</ele><time>2026-04-26T09:02:15Z</time></trkpt><trkpt lat="59.0682186373" lon="29.9854235072"><ele>127.82</ele><time>2026-04-26T09:02:28Z</time></trkpt><trkpt lat="59.0682308748" lon="29.9854160473"><ele>126.95</ele><time>2026-04-26T09:02:36Z</time></trkpt><trkpt lat="59.0682513267" lon="29.9854061566"><ele>125.52</ele><time>2026-04-26T09:03:00Z</time></trkpt><trkpt lat="59.0683092456" lon="29.9852931686"><ele>124.57</ele><time>2026-04-26T09:03:14Z</time></trkpt><trkpt lat="59.0683716070" lon="29.9851294700"><ele>123.39</ele><time>2026-04-26T09:03:31Z</time></trkpt><trkpt lat="59.0684166178" lon="29.9850007240"><ele>122.58</ele><time>2026-04-26T09:03:48Z</time></trkpt><trkpt lat="59.0684421826" lon="29.9848702177"><ele>122.37</ele><time>2026-04-26T09:04:05Z</time></trkpt><trkpt lat="59.0684612934" lon="29.9847979657"><ele>121.86</ele><time>2026-04-26T09:04:20Z</time></trkpt><trkpt lat="59.0685751196" lon="29.9846841395"><ele>121.76</ele><time>2026-04-26T09:04:39Z</time></trkpt><trkpt lat="59.0686918795" lon="29.9846926052"><ele>121.40</ele><time>2026-04-26T09:04:59Z</time></trkpt><trkpt lat="59.0688130818" lon="29.9846710637"><ele>121.78</ele><time>2026-04-26T09:05:19Z</time></trkpt><trkpt lat="59.0688782930" lon="29.9846935272"><ele>122.54</ele><time>2026-04-26T09:05:42Z</time></trkpt><trkpt lat="59.0688897762" lon="29.9847522844"><ele>118.94</ele><time>2026-04-26T09:05:53Z</time></trkpt><trkpt lat="59.0688920394" lon="29.9847570620"><ele>118.91</ele><time>2026-04-26T09:05:54Z</time></trkpt><trkpt lat="59.0689160116" lon="29.9847393762"><ele>122.13</ele><time>2026-04-26T09:06:10Z</time></trkpt><trkpt lat="59.0689191967" lon="29.9847471714"><ele>122.12</ele><time>2026-04-26T09:06:11Z</time></trkpt><trkpt lat="59.0689235553" lon="29.9848314095"><ele>122.32</ele><time>2026-04-26T09:06:31Z</time></trkpt><trkpt lat="59.0689254832" lon="29.9848462455"><ele>119.60</ele><time>2026-04-26T09:06:42Z</time></trkpt><trkpt lat="59.0689006727" lon="29.9848537054"><ele>116.58</ele><time>2026-04-26T09:06:54Z</time></trkpt><trkpt lat="59.0688917879" lon="29.9848542083"><ele>120.18</ele><time>2026-04-26T09:06:55Z</time></trkpt><trkpt lat="59.0688979067" lon="29.9848619197"><ele>121.53</ele><time>2026-04-26T09:06:57Z</time></trkpt><trkpt lat="59.0689013433" lon="29.9848915916"><ele>120.82</ele><time>2026-04-26T09:07:24Z</time></trkpt><trkpt lat="59.0689200349" lon="29.9848956987"><ele>119.94</ele><time>2026-04-26T09:07:42Z</time></trkpt><trkpt lat="59.0689211246" lon="29.9849030748"><ele>120.09</ele><time>2026-04-26T09:07:46Z</time></trkpt><trkpt lat="59.0689452644" lon="29.9850231875"><ele>119.52</ele><time>2026-04-26T09:08:03Z</time></trkpt><trkpt lat="59.0690154210" lon="29.9849613290"><ele>118.71</ele><time>2026-04-26T09:08:23Z</time></trkpt><trkpt lat="59.0690375492" lon="29.9848472513"><ele>117.66</ele><time>2026-04-26T09:08:41Z</time></trkpt><trkpt lat="59.0690649580" lon="29.9848123826"><ele>117.55</ele><time>2026-04-26T09:08:57Z</time></trkpt><trkpt lat="59.0690854099" lon="29.9847910926"><ele>117.25</ele><time>2026-04-26T09:09:15Z</time></trkpt><trkpt lat="59.0691158362" lon="29.9847899191"><ele>116.70</ele><time>2026-04-26T09:09:29Z</time></trkpt><trkpt lat="59.0691273194" lon="29.9847351015"><ele>116.56</ele><time>2026-04-26T09:09:47Z</time></trkpt><trkpt lat="59.0691851545" lon="29.9846986402"><ele>117.06</ele><time>2026-04-26T09:10:14Z</time></trkpt><trkpt lat="59.0692194365" lon="29.9846899230"><ele>117.51</ele><time>2026-04-26T09:10:31Z</time></trkpt><trkpt lat="59.0692495275" lon="29.9847054295"><ele>118.54</ele><time>2026-04-26T09:10:45Z</time></trkpt><trkpt lat="59.0692984778" lon="29.9846595805"><ele>119.95</ele><time>2026-04-26T09:11:04Z</time></trkpt><trkpt lat="59.0693178400" lon="29.9847611692"><ele>119.99</ele><time>2026-04-26T09:11:26Z</time></trkpt><trkpt lat="59.0692898445" lon="29.9848023243"><ele>120.49</ele><time>2026-04-26T09:11:46Z</time></trkpt><trkpt lat="59.0692950413" lon="29.9848377798"><ele>122.03</ele><time>2026-04-26T09:12:10Z</time></trkpt><trkpt lat="59.0693512000" lon="29.9847874884"><ele>122.17</ele><time>2026-04-26T09:12:34Z</time></trkpt><trkpt lat="59.0693944506" lon="29.9847466685"><ele>123.38</ele><time>2026-04-26T09:13:01Z</time></trkpt><trkpt lat="59.0694124717" lon="29.9847895838"><ele>123.92</ele><time>2026-04-26T09:13:21Z</time></trkpt><trkpt lat="59.0693600010" lon="29.9848000612"><ele>118.79</ele><time>2026-04-26T09:13:38Z</time></trkpt><trkpt lat="59.0693626832" lon="29.9847955350"><ele>121.86</ele><time>2026-04-26T09:13:40Z</time></trkpt><trkpt lat="59.0693590790" lon="29.9847607501"><ele>119.09</ele><time>2026-04-26T09:14:03Z</time></trkpt><trkpt lat="59.0693643596" lon="29.9848240335"><ele>117.27</ele><time>2026-04-26T09:14:17Z</time></trkpt><trkpt lat="59.0694048442" lon="29.9848464131"><ele>116.27</ele><time>2026-04-26T09:14:33Z</time></trkpt><trkpt lat="59.0694518667" lon="29.9848524481"><ele>116.28</ele><time>2026-04-26T09:14:55Z</time></trkpt><trkpt lat="59.0694725700" lon="29.9848036654"><ele>116.93</ele><time>2026-04-26T09:15:18Z</time></trkpt><trkpt lat="59.0695385356" lon="29.9847766757"><ele>118.21</ele><time>2026-04-26T09:15:45Z</time></trkpt><trkpt lat="59.0695514437" lon="29.9847722333"><ele>119.07</ele><time>2026-04-26T09:16:04Z</time></trkpt><trkpt lat="59.0696141403" lon="29.9848526157"><ele>120.92</ele><time>2026-04-26T09:16:24Z</time></trkpt><trkpt lat="59.0697123762" lon="29.9848435633"><ele>121.71</ele><time>2026-04-26T09:16:41Z</time></trkpt><trkpt lat="59.0698022302" lon="29.9848093651"><ele>123.50</ele><time>2026-04-26T09:16:56Z</time></trkpt><trkpt lat="59.0699208342" lon="29.9848091137"><ele>126.30</ele><time>2026-04-26T09:17:16Z</time></trkpt><trkpt lat="59.0700322296" lon="29.9848092813"><ele>127.83</ele><time>2026-04-26T09:17:36Z</time></trkpt><trkpt lat="59.0700515080" lon="29.9847977981"><ele>128.94</ele><time>2026-04-26T09:17:48Z</time></trkpt><trkpt lat="59.0700818505" lon="29.9848093651"><ele>130.11</ele><time>2026-04-26T09:18:18Z</time></trkpt><trkpt lat="59.0700764023" lon="29.9847540446"><ele>130.91</ele><time>2026-04-26T09:18:45Z</time></trkpt><trkpt lat="59.0700971894" lon="29.9848207645"><ele>132.38</ele><time>2026-04-26T09:19:07Z</time></trkpt><trkpt lat="59.0700861253" lon="29.9849436432"><ele>133.14</ele><time>2026-04-26T09:19:28Z</time></trkpt><trkpt lat="59.0700654220" lon="29.9850112014"><ele>134.48</ele><time>2026-04-26T09:19:51Z</time></trkpt><trkpt lat="59.0700474009" lon="29.9849736504"><ele>134.97</ele><time>2026-04-26T09:20:18Z</time></trkpt><trkpt lat="59.0700471494" lon="29.9849454034"><ele>136.33</ele><time>2026-04-26T09:20:37Z</time></trkpt><trkpt lat="59.0700686909" lon="29.9849620834"><ele>136.76</ele><time>2026-04-26T09:20:45Z</time></trkpt><trkpt lat="59.0701937489" lon="29.9851011392"><ele>137.99</ele><time>2026-04-26T09:21:06Z</time></trkpt><trkpt lat="59.0702790767" lon="29.9852113612"><ele>140.18</ele><time>2026-04-26T09:21:20Z</time></trkpt><trkpt lat="59.0703530889" lon="29.9854417797"><ele>140.17</ele><time>2026-04-26T09:21:38Z</time></trkpt><trkpt lat="59.0703832638" lon="29.9855794944"><ele>139.78</ele><time>2026-04-26T09:21:56Z</time></trkpt><trkpt lat="59.0703908913" lon="29.9856105912"><ele>139.25</ele><time>2026-04-26T09:22:25Z</time></trkpt><trkpt lat="59.0704130195" lon="29.9856298696"><ele>138.50</ele><time>2026-04-26T09:22:52Z</time></trkpt><trkpt lat="59.0704515763" lon="29.9855914805"><ele>137.88</ele><time>2026-04-26T09:23:14Z</time></trkpt><trkpt lat="59.0704612155" lon="29.9855146185"><ele>138.42</ele><time>2026-04-26T09:23:32Z</time></trkpt><trkpt lat="59.0704659093" lon="29.9855373334"><ele>137.08</ele><time>2026-04-26T09:23:57Z</time></trkpt><trkpt lat="59.0704659931" lon="29.9854349904"><ele>136.33</ele><time>2026-04-26T09:24:13Z</time></trkpt><trkpt lat="59.0705086570" lon="29.9853157997"><ele>135.96</ele><time>2026-04-26T09:24:32Z</time></trkpt><trkpt lat="59.0705677494" lon="29.9852800928"><ele>136.05</ele><time>2026-04-26T09:24:47Z</time></trkpt><trkpt lat="59.0705757961" lon="29.9852909893"><ele>135.78</ele><time>2026-04-26T09:24:51Z</time></trkpt><trkpt lat="59.0706362296" lon="29.9851549510"><ele>135.90</ele><time>2026-04-26T09:25:14Z</time></trkpt><trkpt lat="59.0706749540" lon="29.9851262849"><ele>135.73</ele><time>2026-04-26T09:25:29Z</time></trkpt><trkpt lat="59.0707089007" lon="29.9851125386"><ele>136.05</ele><time>2026-04-26T09:25:41Z</time></trkpt><trkpt lat="59.0707501397" lon="29.9850775022"><ele>136.28</ele><time>2026-04-26T09:26:04Z</time></trkpt><trkpt lat="59.0708212182" lon="29.9851141311"><ele>136.75</ele><time>2026-04-26T09:26:22Z</time></trkpt><trkpt lat="59.0708601940" lon="29.9850582238"><ele>137.09</ele><time>2026-04-26T09:26:38Z</time></trkpt><trkpt lat="59.0708747786" lon="29.9850531109"><ele>134.63</ele><time>2026-04-26T09:27:05Z</time></trkpt><trkpt lat="59.0708984993" lon="29.9850316532"><ele>133.61</ele><time>2026-04-26T09:27:21Z</time></trkpt><trkpt lat="59.0709240641" lon="29.9850241095"><ele>132.24</ele><time>2026-04-26T09:27:43Z</time></trkpt><trkpt lat="59.0709947236" lon="29.9850084353"><ele>131.42</ele><time>2026-04-26T09:28:01Z</time></trkpt><trkpt lat="59.0710641257" lon="29.9848816171"><ele>131.31</ele><time>2026-04-26T09:28:19Z</time></trkpt><trkpt lat="59.0711040236" lon="29.9847660307"><ele>131.60</ele><time>2026-04-26T09:28:39Z</time></trkpt><trkpt lat="59.0711539797" lon="29.9847494345"><ele>131.34</ele><time>2026-04-26T09:28:56Z</time></trkpt><trkpt lat="59.0711460169" lon="29.9847511109"><ele>132.24</ele><time>2026-04-26T09:29:21Z</time></trkpt><trkpt lat="59.0711487830" lon="29.9847437348"><ele>131.59</ele><time>2026-04-26T09:29:49Z</time></trkpt><trkpt lat="59.0711919498" lon="29.9846024159"><ele>130.17</ele><time>2026-04-26T09:30:09Z</time></trkpt><trkpt lat="59.0712127369" lon="29.9845724925"><ele>129.73</ele><time>2026-04-26T09:30:14Z</time></trkpt><trkpt lat="59.0711809695" lon="29.9844691437"><ele>129.73</ele><time>2026-04-26T09:30:22Z</time></trkpt><trkpt lat="59.0712181851" lon="29.9844169244"><ele>129.34</ele><time>2026-04-26T09:30:48Z</time></trkpt><trkpt lat="59.0712984838" lon="29.9843341950"><ele>128.63</ele><time>2026-04-26T09:31:08Z</time></trkpt><trkpt lat="59.0713217016" lon="29.9843045231"><ele>129.04</ele><time>2026-04-26T09:31:17Z</time></trkpt><trkpt lat="59.0713559836" lon="29.9842649605"><ele>128.58</ele><time>2026-04-26T09:31:25Z</time></trkpt><trkpt lat="59.0713674668" lon="29.9842789583"><ele>128.86</ele><time>2026-04-26T09:31:27Z</time></trkpt><trkpt lat="59.0714683011" lon="29.9842771981"><ele>128.77</ele><time>2026-04-26T09:31:56Z</time></trkpt><trkpt lat="59.0715683810" lon="29.9844201095"><ele>128.20</ele><time>2026-04-26T09:32:16Z</time></trkpt><trkpt lat="59.0716554690" lon="29.9844173435"><ele>127.90</ele><time>2026-04-26T09:32:40Z</time></trkpt><trkpt lat="59.0717623383" lon="29.9844274856"><ele>127.16</ele><time>2026-04-26T09:32:57Z</time></trkpt><trkpt lat="59.0719015617" lon="29.9844434112"><ele>126.23</ele><time>2026-04-26T09:33:17Z</time></trkpt><trkpt lat="59.0720291343" lon="29.9845688045"><ele>125.37</ele><time>2026-04-26T09:33:38Z</time></trkpt><trkpt lat="59.0721523482" lon="29.9846716505"><ele>125.10</ele><time>2026-04-26T09:33:58Z</time></trkpt><trkpt lat="59.0722345747" lon="29.9848001450"><ele>123.68</ele><time>2026-04-26T09:34:17Z</time></trkpt><trkpt lat="59.0722609777" lon="29.9848900829"><ele>122.44</ele><time>2026-04-26T09:34:38Z</time></trkpt><trkpt lat="59.0722702816" lon="29.9849060923"><ele>120.66</ele><time>2026-04-26T09:35:03Z</time></trkpt><trkpt lat="59.0723056532" lon="29.9848702177"><ele>120.66</ele><time>2026-04-26T09:35:33Z</time></trkpt><trkpt lat="59.0722881351" lon="29.9848835450"><ele>122.12</ele><time>2026-04-26T09:35:42Z</time></trkpt><trkpt lat="59.0722852014" lon="29.9848956149"><ele>121.10</ele><time>2026-04-26T09:35:46Z</time></trkpt><trkpt lat="59.0722454712" lon="29.9850198347"><ele>119.39</ele><time>2026-04-26T09:36:10Z</time></trkpt><trkpt lat="59.0722470637" lon="29.9848826230"><ele>116.35</ele><time>2026-04-26T09:36:36Z</time></trkpt><trkpt lat="59.0722707007" lon="29.9847907573"><ele>114.38</ele><time>2026-04-26T09:37:01Z</time></trkpt><trkpt lat="59.0723071620" lon="29.9847628456"><ele>112.68</ele><time>2026-04-26T09:37:23Z</time></trkpt><trkpt lat="59.0723390970" lon="29.9847900867"><ele>112.58</ele><time>2026-04-26T09:37:41Z</time></trkpt><trkpt lat="59.0723658353" lon="29.9847861473"><ele>111.86</ele><time>2026-04-26T09:38:02Z</time></trkpt><trkpt lat="59.0723953396" lon="29.9847357720"><ele>111.73</ele><time>2026-04-26T09:38:21Z</time></trkpt><trkpt lat="59.0724431165" lon="29.9845614284"><ele>112.17</ele><time>2026-04-26T09:38:47Z</time></trkpt><trkpt lat="59.0724336449" lon="29.9844470154"><ele>112.62</ele><time>2026-04-26T09:38:59Z</time></trkpt><trkpt lat="59.0724276938" lon="29.9844012503"><ele>111.55</ele><time>2026-04-26T09:39:02Z</time></trkpt><trkpt lat="59.0724392608" lon="29.9842105620"><ele>111.93</ele><time>2026-04-26T09:39:22Z</time></trkpt><trkpt lat="59.0724735428" lon="29.9840781279"><ele>113.86</ele><time>2026-04-26T09:39:43Z</time></trkpt><trkpt lat="59.0724369138" lon="29.9839293491"><ele>115.31</ele><time>2026-04-26T09:40:01Z</time></trkpt><trkpt lat="59.0724391770" lon="29.9839216378"><ele>115.26</ele><time>2026-04-26T09:40:02Z</time></trkpt><trkpt lat="59.0724217426" lon="29.9837248307"><ele>112.71</ele><time>2026-04-26T09:40:18Z</time></trkpt><trkpt lat="59.0724121034" lon="29.9835265148"><ele>112.84</ele><time>2026-04-26T09:40:39Z</time></trkpt><trkpt lat="59.0724763926" lon="29.9835145287"><ele>112.06</ele><time>2026-04-26T09:40:57Z</time></trkpt><trkpt lat="59.0725370776" lon="29.9834379181"><ele>111.73</ele><time>2026-04-26T09:41:09Z</time></trkpt><trkpt lat="59.0726948250" lon="29.9833256844"><ele>111.87</ele><time>2026-04-26T09:41:29Z</time></trkpt><trkpt lat="59.0728216432" lon="29.9833528418"><ele>112.11</ele><time>2026-04-26T09:41:51Z</time></trkpt><trkpt lat="59.0729788877" lon="29.9832701962"><ele>111.08</ele><time>2026-04-26T09:42:09Z</time></trkpt><trkpt lat="59.0730166901" lon="29.9832599703"><ele>110.64</ele><time>2026-04-26T09:42:32Z</time></trkpt><trkpt lat="59.0730306879" lon="29.9832429551"><ele>109.28</ele><time>2026-04-26T09:42:52Z</time></trkpt><trkpt lat="59.0730457753" lon="29.9832133669"><ele>106.52</ele><time>2026-04-26T09:43:18Z</time></trkpt><trkpt lat="59.0730311070" lon="29.9831732176"><ele>103.63</ele><time>2026-04-26T09:43:48Z</time></trkpt><trkpt lat="59.0730317775" lon="29.9831799231"><ele>104.94</ele><time>2026-04-26T09:43:52Z</time></trkpt><trkpt lat="59.0730375610" lon="29.9830500036"><ele>104.06</ele><time>2026-04-26T09:44:20Z</time></trkpt><trkpt lat="59.0730458591" lon="29.9830671027"><ele>103.41</ele><time>2026-04-26T09:44:38Z</time></trkpt><trkpt lat="59.0730882715" lon="29.9831365887"><ele>105.65</ele><time>2026-04-26T09:44:59Z</time></trkpt><trkpt lat="59.0731510520" lon="29.9831567053"><ele>104.75</ele><time>2026-04-26T09:45:19Z</time></trkpt><trkpt lat="59.0732482821" lon="29.9830655940"><ele>105.85</ele><time>2026-04-26T09:45:42Z</time></trkpt><trkpt lat="59.0733613539" lon="29.9829381891"><ele>106.27</ele><time>2026-04-26T09:46:04Z</time></trkpt><trkpt lat="59.0734657925" lon="29.9826840498"><ele>106.29</ele><time>2026-04-26T09:46:23Z</time></trkpt><trkpt lat="59.0736152418" lon="29.9823652860"><ele>106.48</ele><time>2026-04-26T09:46:44Z</time></trkpt><trkpt lat="59.0736450814" lon="29.9821911938"><ele>107.67</ele><time>2026-04-26T09:47:05Z</time></trkpt><trkpt lat="59.0736395493" lon="29.9822041858"><ele>107.63</ele><time>2026-04-26T09:47:36Z</time></trkpt><trkpt lat="59.0736952890" lon="29.9821439199"><ele>105.22</ele><time>2026-04-26T09:48:04Z</time></trkpt><trkpt lat="59.0737413894" lon="29.9820568319"><ele>103.86</ele><time>2026-04-26T09:48:25Z</time></trkpt><trkpt lat="59.0738565568" lon="29.9820900243"><ele>103.24</ele><time>2026-04-26T09:48:44Z</time></trkpt><trkpt lat="59.0739392862" lon="29.9820817262"><ele>102.81</ele><time>2026-04-26T09:48:57Z</time></trkpt><trkpt lat="59.0739926789" lon="29.9820112344"><ele>102.48</ele><time>2026-04-26T09:49:08Z</time></trkpt><trkpt lat="59.0741017275" lon="29.9817630462"><ele>102.65</ele><time>2026-04-26T09:49:31Z</time></trkpt><trkpt lat="59.0741661005" lon="29.9815913849"><ele>103.71</ele><time>2026-04-26T09:49:52Z</time></trkpt><trkpt lat="59.0741945989" lon="29.9815365672"><ele>103.76</ele><time>2026-04-26T09:50:15Z</time></trkpt><trkpt lat="59.0741917491" lon="29.9813388381"><ele>104.18</ele><time>2026-04-26T09:50:43Z</time></trkpt><trkpt lat="59.0741520189" lon="29.9812122714"><ele>104.74</ele><time>2026-04-26T09:51:02Z</time></trkpt><trkpt lat="59.0740431380" lon="29.9810346588"><ele>104.09</ele><time>2026-04-26T09:51:20Z</time></trkpt><trkpt lat="59.0740189143" lon="29.9809053261"><ele>104.69</ele><time>2026-04-26T09:51:29Z</time></trkpt><trkpt lat="59.0740518551" lon="29.9807993788"><ele>105.38</ele><time>2026-04-26T09:51:44Z</time></trkpt><trkpt lat="59.0740324091" lon="29.9806832056"><ele>104.80</ele><time>2026-04-26T09:52:05Z</time></trkpt><trkpt lat="59.0739428904" lon="29.9804809503"><ele>105.30</ele><time>2026-04-26T09:52:25Z</time></trkpt><trkpt lat="59.0738902520" lon="29.9801467638"><ele>105.45</ele><time>2026-04-26T09:52:45Z</time></trkpt><trkpt lat="59.0738614183" lon="29.9800091330"><ele>104.94</ele><time>2026-04-26T09:53:07Z</time></trkpt><trkpt lat="59.0738576464" lon="29.9800162576"><ele>104.52</ele><time>2026-04-26T09:53:33Z</time></trkpt><trkpt lat="59.0738593228" lon="29.9799216259"><ele>102.35</ele><time>2026-04-26T09:53:59Z</time></trkpt><trkpt lat="59.0738775115" lon="29.9796023592"><ele>102.08</ele><time>2026-04-26T09:54:16Z</time></trkpt><trkpt lat="59.0738547966" lon="29.9792738724"><ele>102.10</ele><time>2026-04-26T09:54:33Z</time></trkpt><trkpt lat="59.0738148987" lon="29.9789950904"><ele>101.99</ele><time>2026-04-26T09:54:51Z</time></trkpt><trkpt lat="59.0737740789" lon="29.9788843654"><ele>102.11</ele><time>2026-04-26T09:55:08Z</time></trkpt><trkpt lat="59.0737216081" lon="29.9786992092"><ele>101.69</ele><time>2026-04-26T09:55:26Z</time></trkpt><trkpt lat="59.0736061055" lon="29.9784862250"><ele>101.23</ele><time>2026-04-26T09:55:47Z</time></trkpt><trkpt lat="59.0735999867" lon="29.9783943594"><ele>100.31</ele><time>2026-04-26T09:56:12Z</time></trkpt><trkpt lat="59.0735932812" lon="29.9784142245"><ele>99.54</ele><time>2026-04-26T09:56:34Z</time></trkpt><trkpt lat="59.0736299101" lon="29.9783071876"><ele>98.89</ele><time>2026-04-26T09:56:57Z</time></trkpt><trkpt lat="59.0737106279" lon="29.9780347757"><ele>99.62</ele><time>2026-04-26T09:57:18Z</time></trkpt><trkpt lat="59.0736780223" lon="29.9779583327"><ele>101.09</ele><time>2026-04-26T09:57:39Z</time></trkpt><trkpt lat="59.0736402199" lon="29.9779298343"><ele>103.12</ele><time>2026-04-26T09:58:02Z</time></trkpt><trkpt lat="59.0736442432" lon="29.9779610988"><ele>105.45</ele><time>2026-04-26T09:58:28Z</time></trkpt><trkpt lat="59.0736871585" lon="29.9779635295"><ele>106.22</ele><time>2026-04-26T09:58:51Z</time></trkpt><trkpt lat="59.0736469254" lon="29.9779075384"><ele>107.62</ele><time>2026-04-26T09:59:12Z</time></trkpt><trkpt lat="59.0736499429" lon="29.9779480230"><ele>107.99</ele><time>2026-04-26T09:59:31Z</time></trkpt><trkpt lat="59.0736671258" lon="29.9780184310"><ele>109.40</ele><time>2026-04-26T09:59:56Z</time></trkpt><trkpt lat="59.0736931097" lon="29.9780418165"><ele>107.70</ele><time>2026-04-26T10:00:05Z</time></trkpt><trkpt lat="59.0736886673" lon="29.9780493602"><ele>109.00</ele><time>2026-04-26T10:00:08Z</time></trkpt><trkpt lat="59.0736807045" lon="29.9779606797"><ele>111.13</ele><time>2026-04-26T10:00:33Z</time></trkpt><trkpt lat="59.0736631025" lon="29.9779246375"><ele>111.55</ele><time>2026-04-26T10:00:54Z</time></trkpt><trkpt lat="59.0736367833" lon="29.9779539742"><ele>112.67</ele><time>2026-04-26T10:01:20Z</time></trkpt><trkpt lat="59.0735962149" lon="29.9779596739"><ele>113.61</ele><time>2026-04-26T10:01:45Z</time></trkpt><trkpt lat="59.0735897608" lon="29.9779627752"><ele>114.48</ele><time>2026-04-26T10:02:07Z</time></trkpt><trkpt lat="59.0736199357" lon="29.9779501185"><ele>114.57</ele><time>2026-04-26T10:02:30Z</time></trkpt><trkpt lat="59.0736024175" lon="29.9779123999"><ele>113.68</ele><time>2026-04-26T10:02:56Z</time></trkpt><trkpt lat="59.0736086201" lon="29.9778686464"><ele>112.77</ele><time>2026-04-26T10:03:14Z</time></trkpt><trkpt lat="59.0736060217" lon="29.9778697360"><ele>114.10</ele><time>2026-04-26T10:03:16Z</time></trkpt><trkpt lat="59.0734989010" lon="29.9777666386"><ele>112.82</ele><time>2026-04-26T10:03:38Z</time></trkpt><trkpt lat="59.0733973961" lon="29.9776722584"><ele>112.53</ele><time>2026-04-26T10:03:55Z</time></trkpt><trkpt lat="59.0732766129" lon="29.9774903711"><ele>111.59</ele><time>2026-04-26T10:04:15Z</time></trkpt><trkpt lat="59.0732668061" lon="29.9773175362"><ele>110.68</ele><time>2026-04-26T10:04:36Z</time></trkpt><trkpt lat="59.0732392296" lon="29.9771879520"><ele>109.85</ele><time>2026-04-26T10:04:55Z</time></trkpt><trkpt lat="59.0731261577" lon="29.9770497344"><ele>108.68</ele><time>2026-04-26T10:05:13Z</time></trkpt><trkpt lat="59.0731093939" lon="29.9768623151"><ele>107.63</ele><time>2026-04-26T10:05:31Z</time></trkpt><trkpt lat="59.0731501300" lon="29.9766370095"><ele>106.92</ele><time>2026-04-26T10:05:52Z</time></trkpt><trkpt lat="59.0731036942" lon="29.9764728080"><ele>107.16</ele><time>2026-04-26T10:06:14Z</time></trkpt><trkpt lat="59.0730943065" lon="29.9764142185"><ele>105.16</ele><time>2026-04-26T10:06:42Z</time></trkpt><trkpt lat="59.0730564203" lon="29.9763313215"><ele>103.51</ele><time>2026-04-26T10:07:07Z</time></trkpt><trkpt lat="59.0730298497" lon="29.9761496857"><ele>103.03</ele><time>2026-04-26T10:07:24Z</time></trkpt><trkpt lat="59.0730404109" lon="29.9760191794"><ele>101.89</ele><time>2026-04-26T10:07:44Z</time></trkpt><trkpt lat="59.0730381478" lon="29.9757982325"><ele>101.36</ele><time>2026-04-26T10:08:02Z</time></trkpt><trkpt lat="59.0730504692" lon="29.9757496174"><ele>99.38</ele><time>2026-04-26T10:08:30Z</time></trkpt><trkpt lat="59.0730616171" lon="29.9757531378"><ele>97.93</ele><time>2026-04-26T10:08:58Z</time></trkpt><trkpt lat="59.0730171092" lon="29.9758377112"><ele>96.34</ele><time>2026-04-26T10:09:27Z</time></trkpt><trkpt lat="59.0730191208" lon="29.9758253898"><ele>97.92</ele><time>2026-04-26T10:09:29Z</time></trkpt><trkpt lat="59.0730134211" lon="29.9757383019"><ele>96.02</ele><time>2026-04-26T10:09:54Z</time></trkpt><trkpt lat="59.0730047878" lon="29.9757417385"><ele>94.74</ele><time>2026-04-26T10:09:57Z</time></trkpt><trkpt lat="59.0729590226" lon="29.9759485200"><ele>92.72</ele><time>2026-04-26T10:10:17Z</time></trkpt><trkpt lat="59.0728962421" lon="29.9761209358"><ele>91.75</ele><time>2026-04-26T10:10:37Z</time></trkpt><trkpt lat="59.0728647262" lon="29.9761119671"><ele>90.53</ele><time>2026-04-26T10:10:57Z</time></trkpt><trkpt lat="59.0727633890" lon="29.9761374481"><ele>88.26</ele><time>2026-04-26T10:11:17Z</time></trkpt><trkpt lat="59.0726816654" lon="29.9760759249"><ele>86.76</ele><time>2026-04-26T10:11:33Z</time></trkpt><trkpt lat="59.0725690126" lon="29.9759615120"><ele>85.77</ele><time>2026-04-26T10:11:51Z</time></trkpt><trkpt lat="59.0724566113" lon="29.9759375397"><ele>84.22</ele><time>2026-04-26T10:12:08Z</time></trkpt><trkpt lat="59.0723898914" lon="29.9758807104"><ele>82.40</ele><time>2026-04-26T10:12:24Z</time></trkpt><trkpt lat="59.0723329782" lon="29.9758589175"><ele>80.21</ele><time>2026-04-26T10:12:41Z</time></trkpt><trkpt lat="59.0722741373" lon="29.9758254737"><ele>80.37</ele><time>2026-04-26T10:13:00Z</time></trkpt><trkpt lat="59.0722085908" lon="29.9759641942"><ele>80.01</ele><time>2026-04-26T10:13:16Z</time></trkpt><trkpt lat="59.0722109377" lon="29.9760211911"><ele>80.24</ele><time>2026-04-26T10:13:41Z</time></trkpt><trkpt lat="59.0721945930" lon="29.9759100471"><ele>80.13</ele><time>2026-04-26T10:14:09Z</time></trkpt><trkpt lat="59.0722246841" lon="29.9760084506"><ele>80.15</ele><time>2026-04-26T10:14:36Z</time></trkpt><trkpt lat="59.0722288750" lon="29.9762121309"><ele>77.49</ele><time>2026-04-26T10:15:00Z</time></trkpt><trkpt lat="59.0722290426" lon="29.9764567148"><ele>76.55</ele><time>2026-04-26T10:15:19Z</time></trkpt><trkpt lat="59.0722339042" lon="29.9766823556"><ele>76.79</ele><time>2026-04-26T10:15:35Z</time></trkpt><trkpt lat="59.0722368378" lon="29.9767908175"><ele>76.80</ele><time>2026-04-26T10:15:49Z</time></trkpt><trkpt lat="59.0723104309" lon="29.9769497383"><ele>77.58</ele><time>2026-04-26T10:16:06Z</time></trkpt><trkpt lat="59.0723369177" lon="29.9770381674"><ele>78.85</ele><time>2026-04-26T10:16:20Z</time></trkpt><trkpt lat="59.0723792464" lon="29.9772501457"><ele>78.50</ele><time>2026-04-26T10:16:42Z</time></trkpt><trkpt lat="59.0724965930" lon="29.9773991760"><ele>78.18</ele><time>2026-04-26T10:17:05Z</time></trkpt><trkpt lat="59.0725279413" lon="29.9775126670"><ele>78.07</ele><time>2026-04-26T10:17:19Z</time></trkpt><trkpt lat="59.0724738780" lon="29.9776185304"><ele>77.91</ele><time>2026-04-26T10:17:36Z</time></trkpt><trkpt lat="59.0724500734" lon="29.9776957277"><ele>77.70</ele><time>2026-04-26T10:17:49Z</time></trkpt><trkpt lat="59.0725114290" lon="29.9777898565"><ele>78.59</ele><time>2026-04-26T10:18:11Z</time></trkpt><trkpt lat="59.0725021251" lon="29.9777695723"><ele>77.86</ele><time>2026-04-26T10:18:40Z</time></trkpt><trkpt lat="59.0724665858" lon="29.9779417366"><ele>77.84</ele><time>2026-04-26T10:19:00Z</time></trkpt><trkpt lat="59.0725001972" lon="29.9781040102"><ele>78.20</ele><time>2026-04-26T10:19:20Z</time></trkpt><trkpt lat="59.0725379996" lon="29.9782841373"><ele>78.73</ele><time>2026-04-26T10:19:37Z</time></trkpt><trkpt lat="59.0725420229" lon="29.9784723949"><ele>79.60</ele><time>2026-04-26T10:19:58Z</time></trkpt><trkpt lat="59.0725851897" lon="29.9786671065"><ele>79.64</ele><time>2026-04-26T10:20:21Z</time></trkpt><trkpt lat="59.0725921467" lon="29.9788629916"><ele>79.64</ele><time>2026-04-26T10:20:41Z</time></trkpt><trkpt lat="59.0726180468" lon="29.9790675100"><ele>79.65</ele><time>2026-04-26T10:20:57Z</time></trkpt><trkpt lat="59.0726432763" lon="29.9791272730"><ele>79.71</ele><time>2026-04-26T10:21:04Z</time></trkpt><trkpt lat="59.0726661589" lon="29.9792119302"><ele>79.90</ele><time>2026-04-26T10:21:10Z</time></trkpt><trkpt lat="59.0726562683" lon="29.9792451225"><ele>79.71</ele><time>2026-04-26T10:21:12Z</time></trkpt><trkpt lat="59.0726676676" lon="29.9793998525"><ele>79.37</ele><time>2026-04-26T10:21:23Z</time></trkpt><trkpt lat="59.0726357326" lon="29.9798567500"><ele>79.04</ele><time>2026-04-26T10:21:47Z</time></trkpt><trkpt lat="59.0726464614" lon="29.9800528865"><ele>78.35</ele><time>2026-04-26T10:22:09Z</time></trkpt><trkpt lat="59.0726774745" lon="29.9799956381"><ele>77.70</ele><time>2026-04-26T10:22:42Z</time></trkpt><trkpt lat="59.0726799890" lon="29.9801018368"><ele>75.36</ele><time>2026-04-26T10:23:09Z</time></trkpt><trkpt lat="59.0726984292" lon="29.9801135715"><ele>74.42</ele><time>2026-04-26T10:23:15Z</time></trkpt><trkpt lat="59.0726680029" lon="29.9801364541"><ele>73.23</ele><time>2026-04-26T10:23:42Z</time></trkpt><trkpt lat="59.0726628900" lon="29.9801574927"><ele>71.99</ele><time>2026-04-26T10:24:11Z</time></trkpt><trkpt lat="59.0726931486" lon="29.9803028349"><ele>70.67</ele><time>2026-04-26T10:24:30Z</time></trkpt><trkpt lat="59.0727448650" lon="29.9803596642"><ele>70.17</ele><time>2026-04-26T10:24:37Z</time></trkpt><trkpt lat="59.0727854334" lon="29.9803862348"><ele>69.79</ele><time>2026-04-26T10:25:01Z</time></trkpt><trkpt lat="59.0727685858" lon="29.9803858995"><ele>70.47</ele><time>2026-04-26T10:25:07Z</time></trkpt><trkpt lat="59.0727384109" lon="29.9804288149"><ele>68.43</ele><time>2026-04-26T10:25:34Z</time></trkpt><trkpt lat="59.0727923904" lon="29.9804382864"><ele>68.15</ele><time>2026-04-26T10:25:58Z</time></trkpt><trkpt lat="59.0728775505" lon="29.9803527072"><ele>68.54</ele><time>2026-04-26T10:26:19Z</time></trkpt><trkpt lat="59.0728399996" lon="29.9803543836"><ele>66.60</ele><time>2026-04-26T10:26:47Z</time></trkpt><trkpt lat="59.0727997664" lon="29.9804677907"><ele>67.08</ele><time>2026-04-26T10:27:06Z</time></trkpt><trkpt lat="59.0727863554" lon="29.9804920144"><ele>67.01</ele><time>2026-04-26T10:27:09Z</time></trkpt><trkpt lat="59.0726757143" lon="29.9807090219"><ele>67.75</ele><time>2026-04-26T10:27:26Z</time></trkpt><trkpt lat="59.0726321284" lon="29.9809129536"><ele>67.85</ele><time>2026-04-26T10:27:41Z</time></trkpt><trkpt lat="59.0726136044" lon="29.9811070785"><ele>68.21</ele><time>2026-04-26T10:27:58Z</time></trkpt><trkpt lat="59.0725600440" lon="29.9812473077"><ele>67.96</ele><time>2026-04-26T10:28:06Z</time></trkpt><trkpt lat="59.0725006163" lon="29.9814284407"><ele>68.02</ele><time>2026-04-26T10:28:24Z</time></trkpt><trkpt lat="59.0724822599" lon="29.9814890418"><ele>68.41</ele><time>2026-04-26T10:28:29Z</time></trkpt><trkpt lat="59.0724479780" lon="29.9816433527"><ele>68.03</ele><time>2026-04-26T10:28:38Z</time></trkpt><trkpt lat="59.0723446291" lon="29.9819098972"><ele>68.68</ele><time>2026-04-26T10:28:57Z</time></trkpt><trkpt lat="59.0722950082" lon="29.9821100570"><ele>70.10</ele><time>2026-04-26T10:29:17Z</time></trkpt><trkpt lat="59.0723504126" lon="29.9821538944"><ele>70.70</ele><time>2026-04-26T10:29:41Z</time></trkpt><trkpt lat="59.0723942500" lon="29.9821756035"><ele>71.53</ele><time>2026-04-26T10:29:48Z</time></trkpt><trkpt lat="59.0723886341" lon="29.9822657928"><ele>72.64</ele><time>2026-04-26T10:30:07Z</time></trkpt><trkpt lat="59.0723647457" lon="29.9821690656"><ele>71.94</ele><time>2026-04-26T10:30:41Z</time></trkpt><trkpt lat="59.0723648295" lon="29.9821683113"><ele>75.72</ele><time>2026-04-26T10:30:42Z</time></trkpt><trkpt lat="59.0723642427" lon="29.9821658805"><ele>74.63</ele><time>2026-04-26T10:30:43Z</time></trkpt><trkpt lat="59.0723539330" lon="29.9821477756"><ele>71.85</ele><time>2026-04-26T10:30:51Z</time></trkpt><trkpt lat="59.0723258536" lon="29.9821565766"><ele>72.01</ele><time>2026-04-26T10:31:19Z</time></trkpt><trkpt lat="59.0723199863" lon="29.9821517151"><ele>70.06</ele><time>2026-04-26T10:31:24Z</time></trkpt><trkpt lat="59.0723067429" lon="29.9821423274"><ele>68.79</ele><time>2026-04-26T10:31:31Z</time></trkpt><trkpt lat="59.0722104348" lon="29.9819143396"><ele>65.95</ele><time>2026-04-26T10:31:52Z</time></trkpt><trkpt lat="59.0721867140" lon="29.9817825761"><ele>65.28</ele><time>2026-04-26T10:32:04Z</time></trkpt><trkpt lat="59.0720714629" lon="29.9815804046"><ele>65.37</ele><time>2026-04-26T10:32:28Z</time></trkpt><trkpt lat="59.0720649250" lon="29.9815765489"><ele>65.38</ele><time>2026-04-26T10:32:29Z</time></trkpt><trkpt lat="59.0719778370" lon="29.9813987687"><ele>65.71</ele><time>2026-04-26T10:32:54Z</time></trkpt><trkpt lat="59.0719709639" lon="29.9812394287"><ele>66.03</ele><time>2026-04-26T10:33:12Z</time></trkpt><trkpt lat="59.0719339997" lon="29.9810593855"><ele>66.68</ele><time>2026-04-26T10:33:36Z</time></trkpt><trkpt lat="59.0719055012" lon="29.9808960222"><ele>68.32</ele><time>2026-04-26T10:33:59Z</time></trkpt><trkpt lat="59.0718125459" lon="29.9809097685"><ele>69.54</ele><time>2026-04-26T10:34:20Z</time></trkpt><trkpt lat="59.0717728995" lon="29.9808847904"><ele>70.33</ele><time>2026-04-26T10:34:45Z</time></trkpt><trkpt lat="59.0717381984" lon="29.9808727205"><ele>71.67</ele><time>2026-04-26T10:35:04Z</time></trkpt><trkpt lat="59.0717252903" lon="29.9808733072"><ele>72.68</ele><time>2026-04-26T10:35:13Z</time></trkpt><trkpt lat="59.0717642661" lon="29.9808052462"><ele>75.30</ele><time>2026-04-26T10:35:38Z</time></trkpt><trkpt lat="59.0717807785" lon="29.9807954393"><ele>77.04</ele><time>2026-04-26T10:35:59Z</time></trkpt><trkpt lat="59.0717488434" lon="29.9808117002"><ele>78.63</ele><time>2026-04-26T10:36:27Z</time></trkpt><trkpt lat="59.0717590693" lon="29.9808182381"><ele>77.27</ele><time>2026-04-26T10:36:35Z</time></trkpt><trkpt lat="59.0717690438" lon="29.9808509275"><ele>74.08</ele><time>2026-04-26T10:36:52Z</time></trkpt><trkpt lat="59.0717698820" lon="29.9808513466"><ele>74.08</ele><time>2026-04-26T10:36:53Z</time></trkpt><trkpt lat="59.0717792697" lon="29.9808755703"><ele>76.56</ele><time>2026-04-26T10:37:00Z</time></trkpt><trkpt lat="59.0717868134" lon="29.9808746483"><ele>75.15</ele><time>2026-04-26T10:37:04Z</time></trkpt><trkpt lat="59.0718161501" lon="29.9808848742"><ele>74.04</ele><time>2026-04-26T10:37:31Z</time></trkpt><trkpt lat="59.0717708040" lon="29.9808189087"><ele>73.43</ele><time>2026-04-26T10:37:48Z</time></trkpt><trkpt lat="59.0716926847" lon="29.9808539450"><ele>73.40</ele><time>2026-04-26T10:38:12Z</time></trkpt><trkpt lat="59.0715861507" lon="29.9809683580"><ele>74.64</ele><time>2026-04-26T10:38:32Z</time></trkpt><trkpt lat="59.0715464205" lon="29.9810555298"><ele>74.77</ele><time>2026-04-26T10:38:39Z</time></trkpt><trkpt lat="59.0714193508" lon="29.9811981898"><ele>75.98</ele><time>2026-04-26T10:39:04Z</time></trkpt><trkpt lat="59.0712732542" lon="29.9812778179"><ele>76.84</ele><time>2026-04-26T10:39:29Z</time></trkpt><trkpt lat="59.0711191949" lon="29.9812886305"><ele>78.02</ele><time>2026-04-26T10:39:53Z</time></trkpt><trkpt lat="59.0710177738" lon="29.9813336413"><ele>78.54</ele><time>2026-04-26T10:40:07Z</time></trkpt><trkpt lat="59.0710142534" lon="29.9813395925"><ele>78.60</ele><time>2026-04-26T10:40:08Z</time></trkpt><trkpt lat="59.0709484555" lon="29.9813872017"><ele>78.92</ele><time>2026-04-26T10:40:17Z</time></trkpt><trkpt lat="59.0708419215" lon="29.9815059733"><ele>80.03</ele><time>2026-04-26T10:40:36Z</time></trkpt><trkpt lat="59.0707828291" lon="29.9814759661"><ele>81.72</ele><time>2026-04-26T10:40:54Z</time></trkpt><trkpt lat="59.0706809051" lon="29.9815125111"><ele>83.65</ele><time>2026-04-26T10:41:13Z</time></trkpt><trkpt lat="59.0705933981" lon="29.9815080687"><ele>85.66</ele><time>2026-04-26T10:41:32Z</time></trkpt><trkpt lat="59.0704848524" lon="29.9815995991"><ele>87.66</ele><time>2026-04-26T10:41:50Z</time></trkpt><trkpt lat="59.0703397617" lon="29.9816855136"><ele>90.48</ele><time>2026-04-26T10:42:13Z</time></trkpt><trkpt lat="59.0702053159" lon="29.9817696679"><ele>92.59</ele><time>2026-04-26T10:42:33Z</time></trkpt><trkpt lat="59.0700551122" lon="29.9818171933"><ele>94.67</ele><time>2026-04-26T10:42:51Z</time></trkpt><trkpt lat="59.0699158888" lon="29.9818707537"><ele>96.65</ele><time>2026-04-26T10:43:10Z</time></trkpt><trkpt lat="59.0697670262" lon="29.9819684867"><ele>98.72</ele><time>2026-04-26T10:43:29Z</time></trkpt><trkpt lat="59.0696469136" lon="29.9820819777"><ele>100.70</ele><time>2026-04-26T10:43:48Z</time></trkpt><trkpt lat="59.0695187543" lon="29.9821695685"><ele>102.66</ele><time>2026-04-26T10:44:06Z</time></trkpt><trkpt lat="59.0693575703" lon="29.9822300021"><ele>104.38</ele><time>2026-04-26T10:44:25Z</time></trkpt><trkpt lat="59.0691964701" lon="29.9822973926"><ele>106.02</ele><time>2026-04-26T10:44:45Z</time></trkpt><trkpt lat="59.0690426622" lon="29.9823650345"><ele>107.31</ele><time>2026-04-26T10:45:03Z</time></trkpt><trkpt lat="59.0688932128" lon="29.9824458361"><ele>109.03</ele><time>2026-04-26T10:45:24Z</time></trkpt><trkpt lat="59.0687620360" lon="29.9825096224"><ele>111.48</ele><time>2026-04-26T10:45:49Z</time></trkpt><trkpt lat="59.0686063841" lon="29.9826117139"><ele>112.49</ele><time>2026-04-26T10:46:08Z</time></trkpt><trkpt lat="59.0684850980" lon="29.9826796912"><ele>113.79</ele><time>2026-04-26T10:46:25Z</time></trkpt><trkpt lat="59.0683580283" lon="29.9827678688"><ele>115.35</ele><time>2026-04-26T10:46:44Z</time></trkpt><trkpt lat="59.0681959223" lon="29.9828652665"><ele>116.56</ele><time>2026-04-26T10:47:06Z</time></trkpt><trkpt lat="59.0680642426" lon="29.9829057511"><ele>117.24</ele><time>2026-04-26T10:47:25Z</time></trkpt><trkpt lat="59.0678888932" lon="29.9829846248"><ele>118.60</ele><time>2026-04-26T10:47:48Z</time></trkpt><trkpt lat="59.0677438863" lon="29.9830568768"><ele>119.61</ele><time>2026-04-26T10:48:07Z</time></trkpt><trkpt lat="59.0676085185" lon="29.9830860458"><ele>120.01</ele><time>2026-04-26T10:48:24Z</time></trkpt><trkpt lat="59.0674666967" lon="29.9831772409"><ele>120.79</ele><time>2026-04-26T10:48:47Z</time></trkpt><trkpt lat="59.0674548782" lon="29.9831676856"><ele>122.22</ele><time>2026-04-26T10:48:53Z</time></trkpt><trkpt lat="59.0674496815" lon="29.9831508379"><ele>117.66</ele><time>2026-04-26T10:49:05Z</time></trkpt><trkpt lat="59.0674477536" lon="29.9831444677"><ele>117.62</ele><time>2026-04-26T10:49:06Z</time></trkpt><trkpt lat="59.0674504358" lon="29.9831267819"><ele>118.25</ele><time>2026-04-26T10:49:10Z</time></trkpt><trkpt lat="59.0674510226" lon="29.9831102695"><ele>115.51</ele><time>2026-04-26T10:49:38Z</time></trkpt><trkpt lat="59.0674349293" lon="29.9831309728"><ele>114.85</ele><time>2026-04-26T10:50:03Z</time></trkpt><trkpt lat="59.0674467478" lon="29.9831278715"><ele>113.96</ele><time>2026-04-26T10:50:17Z</time></trkpt><trkpt lat="59.0673261322" lon="29.9831084255"><ele>114.24</ele><time>2026-04-26T10:50:36Z</time></trkpt><trkpt lat="59.0671839751" lon="29.9831860419"><ele>113.49</ele><time>2026-04-26T10:50:53Z</time></trkpt><trkpt lat="59.0670560673" lon="29.9832018837"><ele>112.71</ele><time>2026-04-26T10:51:11Z</time></trkpt><trkpt lat="59.0669203643" lon="29.9832190666"><ele>111.94</ele><time>2026-04-26T10:51:32Z</time></trkpt><trkpt lat="59.0667070448" lon="29.9832740519"><ele>111.02</ele><time>2026-04-26T10:51:52Z</time></trkpt><trkpt lat="59.0665295161" lon="29.9833729584"><ele>109.72</ele><time>2026-04-26T10:52:11Z</time></trkpt><trkpt lat="59.0664124209" lon="29.9834235851"><ele>109.12</ele><time>2026-04-26T10:52:31Z</time></trkpt><trkpt lat="59.0663140174" lon="29.9835737888"><ele>107.65</ele><time>2026-04-26T10:52:45Z</time></trkpt><trkpt lat="59.0662893746" lon="29.9836103339"><ele>107.05</ele><time>2026-04-26T10:53:05Z</time></trkpt><trkpt lat="59.0663073119" lon="29.9836273491"><ele>106.59</ele><time>2026-04-26T10:53:32Z</time></trkpt><trkpt lat="59.0663358942" lon="29.9836539198"><ele>105.73</ele><time>2026-04-26T10:53:59Z</time></trkpt><trkpt lat="59.0663134307" lon="29.9836623855"><ele>106.15</ele><time>2026-04-26T10:54:24Z</time></trkpt><trkpt lat="59.0662609600" lon="29.9835658260"><ele>107.62</ele><time>2026-04-26T10:54:55Z</time></trkpt><trkpt lat="59.0662035439" lon="29.9836291932"><ele>106.43</ele><time>2026-04-26T10:55:16Z</time></trkpt><trkpt lat="59.0661003627" lon="29.9838458654"><ele>108.35</ele><time>2026-04-26T10:55:37Z</time></trkpt><trkpt lat="59.0659912303" lon="29.9839510582"><ele>108.41</ele><time>2026-04-26T10:55:58Z</time></trkpt><trkpt lat="59.0657346603" lon="29.9839113280"><ele>106.18</ele><time>2026-04-26T10:56:23Z</time></trkpt><trkpt lat="59.0655264538" lon="29.9838478770"><ele>106.13</ele><time>2026-04-26T10:56:46Z</time></trkpt><trkpt lat="59.0653240308" lon="29.9837312847"><ele>106.64</ele><time>2026-04-26T10:57:10Z</time></trkpt><trkpt lat="59.0651914291" lon="29.9837032892"><ele>106.36</ele><time>2026-04-26T10:57:31Z</time></trkpt><trkpt lat="59.0650204383" lon="29.9836623855"><ele>105.24</ele><time>2026-04-26T10:57:53Z</time></trkpt><trkpt lat="59.0649222862" lon="29.9836265109"><ele>105.15</ele><time>2026-04-26T10:58:06Z</time></trkpt><trkpt lat="59.0649024211" lon="29.9836122617"><ele>108.17</ele><time>2026-04-26T10:58:09Z</time></trkpt><trkpt lat="59.0648633614" lon="29.9836133514"><ele>103.80</ele><time>2026-04-26T10:58:15Z</time></trkpt><trkpt lat="59.0648595057" lon="29.9836111721"><ele>107.28</ele><time>2026-04-26T10:58:16Z</time></trkpt><trkpt lat="59.0648477711" lon="29.9836148601"><ele>103.26</ele><time>2026-04-26T10:58:18Z</time></trkpt><trkpt lat="59.0648458432" lon="29.9836160336"><ele>104.21</ele><time>2026-04-26T10:58:19Z</time></trkpt><trkpt lat="59.0648405626" lon="29.9836103339"><ele>105.45</ele><time>2026-04-26T10:58:21Z</time></trkpt><trkpt lat="59.0647923667" lon="29.9836062267"><ele>105.12</ele><time>2026-04-26T10:58:31Z</time></trkpt><trkpt lat="59.0647772793" lon="29.9835374113"><ele>108.72</ele><time>2026-04-26T10:58:36Z</time></trkpt><trkpt lat="59.0647744294" lon="29.9835294485"><ele>105.61</ele><time>2026-04-26T10:58:38Z</time></trkpt><trkpt lat="59.0647749323" lon="29.9835230783"><ele>101.43</ele><time>2026-04-26T10:58:39Z</time></trkpt><trkpt lat="59.0647746809" lon="29.9835228268"><ele>104.64</ele><time>2026-04-26T10:58:40Z</time></trkpt><trkpt lat="59.0647699870" lon="29.9834709428"><ele>106.96</ele><time>2026-04-26T10:58:44Z</time></trkpt><trkpt lat="59.0647750162" lon="29.9833977688"><ele>107.51</ele><time>2026-04-26T10:58:50Z</time></trkpt><trkpt lat="59.0647745132" lon="29.9833778199"><ele>104.10</ele><time>2026-04-26T10:58:52Z</time></trkpt><trkpt lat="59.0647749323" lon="29.9833692703"><ele>105.43</ele><time>2026-04-26T10:58:53Z</time></trkpt><trkpt lat="59.0647018421" lon="29.9832019676"><ele>106.01</ele><time>2026-04-26T10:59:13Z</time></trkpt><trkpt lat="59.0646953043" lon="29.9831439648"><ele>108.22</ele><time>2026-04-26T10:59:17Z</time></trkpt><trkpt lat="59.0646888502" lon="29.9831050728"><ele>105.06</ele><time>2026-04-26T10:59:21Z</time></trkpt><trkpt lat="59.0646851622" lon="29.9830903206"><ele>104.12</ele><time>2026-04-26T10:59:23Z</time></trkpt><trkpt lat="59.0646823123" lon="29.9830211699"><ele>104.84</ele><time>2026-04-26T10:59:31Z</time></trkpt><trkpt lat="59.0646224655" lon="29.9828195851"><ele>104.72</ele><time>2026-04-26T10:59:51Z</time></trkpt><trkpt lat="59.0646109823" lon="29.9827806093"><ele>100.86</ele><time>2026-04-26T10:59:55Z</time></trkpt><trkpt lat="59.0646117367" lon="29.9827645160"><ele>101.90</ele><time>2026-04-26T11:00:00Z</time></trkpt><trkpt lat="59.0646151733" lon="29.9827594869"><ele>104.95</ele><time>2026-04-26T11:00:02Z</time></trkpt><trkpt lat="59.0645883512" lon="29.9827504344"><ele>101.95</ele><time>2026-04-26T11:00:08Z</time></trkpt><trkpt lat="59.0645842440" lon="29.9827533681"><ele>105.33</ele><time>2026-04-26T11:00:09Z</time></trkpt><trkpt lat="59.0645488724" lon="29.9827431422"><ele>102.63</ele><time>2026-04-26T11:00:14Z</time></trkpt><trkpt lat="59.0645136684" lon="29.9827480875"><ele>104.20</ele><time>2026-04-26T11:00:20Z</time></trkpt><trkpt lat="59.0644793026" lon="29.9827525299"><ele>102.12</ele><time>2026-04-26T11:00:24Z</time></trkpt><trkpt lat="59.0644651372" lon="29.9827479199"><ele>106.17</ele><time>2026-04-26T11:00:28Z</time></trkpt><trkpt lat="59.0644163545" lon="29.9827803578"><ele>103.15</ele><time>2026-04-26T11:00:37Z</time></trkpt><trkpt lat="59.0644086432" lon="29.9827841297"><ele>101.42</ele><time>2026-04-26T11:00:39Z</time></trkpt><trkpt lat="59.0644055419" lon="29.9827894941"><ele>104.94</ele><time>2026-04-26T11:00:40Z</time></trkpt><trkpt lat="59.0643593576" lon="29.9827797711"><ele>103.03</ele><time>2026-04-26T11:00:54Z</time></trkpt><trkpt lat="59.0643592738" lon="29.9827888235"><ele>104.81</ele><time>2026-04-26T11:00:58Z</time></trkpt><trkpt lat="59.0643562563" lon="29.9827822857"><ele>103.28</ele><time>2026-04-26T11:00:59Z</time></trkpt><trkpt lat="59.0643058810" lon="29.9828186631"><ele>104.59</ele><time>2026-04-26T11:01:04Z</time></trkpt><trkpt lat="59.0643006004" lon="29.9828143883"><ele>101.09</ele><time>2026-04-26T11:01:06Z</time></trkpt><trkpt lat="59.0642549191" lon="29.9828483351"><ele>105.36</ele><time>2026-04-26T11:01:15Z</time></trkpt><trkpt lat="59.0642330423" lon="29.9828443956"><ele>101.82</ele><time>2026-04-26T11:01:19Z</time></trkpt><trkpt lat="59.0642295219" lon="29.9828499276"><ele>101.93</ele><time>2026-04-26T11:01:20Z</time></trkpt><trkpt lat="59.0642189607" lon="29.9828560464"><ele>105.52</ele><time>2026-04-26T11:01:31Z</time></trkpt><trkpt lat="59.0641956590" lon="29.9827925116"><ele>105.71</ele><time>2026-04-26T11:01:46Z</time></trkpt><trkpt lat="59.0641853493" lon="29.9827767536"><ele>105.89</ele><time>2026-04-26T11:01:51Z</time></trkpt><trkpt lat="59.0640390851" lon="29.9827203434"><ele>103.16</ele><time>2026-04-26T11:02:20Z</time></trkpt><trkpt lat="59.0640393365" lon="29.9827274680"><ele>104.44</ele><time>2026-04-26T11:02:27Z</time></trkpt><trkpt lat="59.0640158672" lon="29.9827899970"><ele>102.04</ele><time>2026-04-26T11:02:35Z</time></trkpt><trkpt lat="59.0639969241" lon="29.9827754963"><ele>101.38</ele><time>2026-04-26T11:02:42Z</time></trkpt><trkpt lat="59.0639740415" lon="29.9827956967"><ele>103.13</ele><time>2026-04-26T11:02:45Z</time></trkpt><trkpt lat="59.0639630612" lon="29.9828195851"><ele>104.11</ele><time>2026-04-26T11:02:54Z</time></trkpt><trkpt lat="59.0639162902" lon="29.9828084372"><ele>102.89</ele><time>2026-04-26T11:03:07Z</time></trkpt><trkpt lat="59.0638803318" lon="29.9827739038"><ele>100.30</ele><time>2026-04-26T11:03:25Z</time></trkpt><trkpt lat="59.0638565272" lon="29.9827893265"><ele>101.91</ele><time>2026-04-26T11:03:28Z</time></trkpt><trkpt lat="59.0638414398" lon="29.9828239437"><ele>100.66</ele><time>2026-04-26T11:03:31Z</time></trkpt><trkpt lat="59.0638313815" lon="29.9828225188"><ele>101.63</ele><time>2026-04-26T11:03:33Z</time></trkpt><trkpt lat="59.0637734625" lon="29.9828915019"><ele>102.15</ele><time>2026-04-26T11:03:43Z</time></trkpt><trkpt lat="59.0637291223" lon="29.9829869717"><ele>100.17</ele><time>2026-04-26T11:04:08Z</time></trkpt><trkpt lat="59.0637274459" lon="29.9829904921"><ele>99.33</ele><time>2026-04-26T11:04:10Z</time></trkpt><trkpt lat="59.0637524240" lon="29.9829562102"><ele>100.08</ele><time>2026-04-26T11:04:20Z</time></trkpt><trkpt lat="59.0637862869" lon="29.9829143845"><ele>98.69</ele><time>2026-04-26T11:04:24Z</time></trkpt><trkpt lat="59.0637965966" lon="29.9829558749"><ele>100.73</ele><time>2026-04-26T11:04:30Z</time></trkpt><trkpt lat="59.0637855325" lon="29.9830733892"><ele>97.56</ele><time>2026-04-26T11:04:46Z</time></trkpt><trkpt lat="59.0637853649" lon="29.9830792565"><ele>97.86</ele><time>2026-04-26T11:04:47Z</time></trkpt><trkpt lat="59.0636722092" lon="29.9831900652"><ele>97.86</ele><time>2026-04-26T11:05:05Z</time></trkpt><trkpt lat="59.0634746477" lon="29.9832153786"><ele>96.30</ele><time>2026-04-26T11:05:23Z</time></trkpt><trkpt lat="59.0632426366" lon="29.9831712898"><ele>95.88</ele><time>2026-04-26T11:05:47Z</time></trkpt><trkpt lat="59.0631438140" lon="29.9831423722"><ele>95.31</ele><time>2026-04-26T11:05:56Z</time></trkpt><trkpt lat="59.0629402176" lon="29.9830588046"><ele>95.64</ele><time>2026-04-26T11:06:16Z</time></trkpt><trkpt lat="59.0628606733" lon="29.9830195773"><ele>94.49</ele><time>2026-04-26T11:06:27Z</time></trkpt><trkpt lat="59.0626479406" lon="29.9828999676"><ele>94.73</ele><time>2026-04-26T11:06:50Z</time></trkpt><trkpt lat="59.0624498762" lon="29.9829151388"><ele>95.41</ele><time>2026-04-26T11:07:10Z</time></trkpt><trkpt lat="59.0622475371" lon="29.9828571361"><ele>93.53</ele><time>2026-04-26T11:07:32Z</time></trkpt><trkpt lat="59.0620459523" lon="29.9827299826"><ele>92.98</ele><time>2026-04-26T11:07:54Z</time></trkpt><trkpt lat="59.0619006101" lon="29.9827488419"><ele>92.92</ele><time>2026-04-26T11:08:09Z</time></trkpt><trkpt lat="59.0617908910" lon="29.9827222712"><ele>92.72</ele><time>2026-04-26T11:08:24Z</time></trkpt><trkpt lat="59.0615705308" lon="29.9826385360"><ele>93.59</ele><time>2026-04-26T11:08:47Z</time></trkpt><trkpt lat="59.0613442194" lon="29.9826459959"><ele>92.01</ele><time>2026-04-26T11:09:10Z</time></trkpt><trkpt lat="59.0613036510" lon="29.9826219399"><ele>90.88</ele><time>2026-04-26T11:09:15Z</time></trkpt><trkpt lat="59.0611459035" lon="29.9824729096"><ele>91.20</ele><time>2026-04-26T11:09:33Z</time></trkpt><trkpt lat="59.0609646868" lon="29.9823811278"><ele>90.42</ele><time>2026-04-26T11:09:52Z</time></trkpt><trkpt lat="59.0608426463" lon="29.9823624361"><ele>90.82</ele><time>2026-04-26T11:10:01Z</time></trkpt><trkpt lat="59.0607061889" lon="29.9823371228"><ele>92.52</ele><time>2026-04-26T11:10:17Z</time></trkpt><trkpt lat="59.0605817176" lon="29.9822594225"><ele>92.66</ele><time>2026-04-26T11:10:32Z</time></trkpt><trkpt lat="59.0605548956" lon="29.9822300021"><ele>90.82</ele><time>2026-04-26T11:10:35Z</time></trkpt><trkpt lat="59.0603964776" lon="29.9822042696"><ele>90.28</ele><time>2026-04-26T11:10:49Z</time></trkpt><trkpt lat="59.0603282489" lon="29.9821860809"><ele>89.72</ele><time>2026-04-26T11:10:58Z</time></trkpt><trkpt lat="59.0602509677" lon="29.9821705744"><ele>89.46</ele><time>2026-04-26T11:11:07Z</time></trkpt><trkpt lat="59.0600135922" lon="29.9821383040"><ele>89.91</ele><time>2026-04-26T11:11:29Z</time></trkpt><trkpt lat="59.0598890372" lon="29.9820826482"><ele>88.84</ele><time>2026-04-26T11:11:45Z</time></trkpt><trkpt lat="59.0597148612" lon="29.9820426665"><ele>88.81</ele><time>2026-04-26T11:12:03Z</time></trkpt><trkpt lat="59.0595819242" lon="29.9819875974"><ele>87.98</ele><time>2026-04-26T11:12:18Z</time></trkpt><trkpt lat="59.0593998693" lon="29.9819153454"><ele>89.29</ele><time>2026-04-26T11:12:35Z</time></trkpt><trkpt lat="59.0592453070" lon="29.9819161836"><ele>90.48</ele><time>2026-04-26T11:12:50Z</time></trkpt><trkpt lat="59.0591046587" lon="29.9818083085"><ele>88.66</ele><time>2026-04-26T11:13:07Z</time></trkpt><trkpt lat="59.0590580553" lon="29.9817838334"><ele>89.71</ele><time>2026-04-26T11:13:12Z</time></trkpt><trkpt lat="59.0590385254" lon="29.9817764573"><ele>88.27</ele><time>2026-04-26T11:13:14Z</time></trkpt><trkpt lat="59.0590090211" lon="29.9817636330"><ele>89.97</ele><time>2026-04-26T11:13:17Z</time></trkpt><trkpt lat="59.0588822868" lon="29.9816969968"><ele>89.95</ele><time>2026-04-26T11:13:31Z</time></trkpt><trkpt lat="59.0587126371" lon="29.9816393293"><ele>90.80</ele><time>2026-04-26T11:13:50Z</time></trkpt><trkpt lat="59.0586577356" lon="29.9816236552"><ele>90.70</ele><time>2026-04-26T11:13:56Z</time></trkpt><trkpt lat="59.0586403850" lon="29.9816345517"><ele>88.32</ele><time>2026-04-26T11:13:58Z</time></trkpt><trkpt lat="59.0585217811" lon="29.9816315342"><ele>90.37</ele><time>2026-04-26T11:14:11Z</time></trkpt><trkpt lat="59.0585047659" lon="29.9816311151"><ele>88.07</ele><time>2026-04-26T11:14:13Z</time></trkpt><trkpt lat="59.0584797878" lon="29.9816317018"><ele>90.05</ele><time>2026-04-26T11:14:16Z</time></trkpt><trkpt lat="59.0584334359" lon="29.9816266727"><ele>88.28</ele><time>2026-04-26T11:14:21Z</time></trkpt><trkpt lat="59.0582510456" lon="29.9815833382"><ele>91.52</ele><time>2026-04-26T11:14:40Z</time></trkpt><trkpt lat="59.0582091361" lon="29.9815344717"><ele>88.37</ele><time>2026-04-26T11:14:47Z</time></trkpt><trkpt lat="59.0581818949" lon="29.9815095775"><ele>90.11</ele><time>2026-04-26T11:14:50Z</time></trkpt><trkpt lat="59.0581284184" lon="29.9815553427"><ele>89.14</ele><time>2026-04-26T11:14:55Z</time></trkpt><trkpt lat="59.0579728503" lon="29.9815194681"><ele>88.14</ele><time>2026-04-26T11:15:13Z</time></trkpt><trkpt lat="59.0579672344" lon="29.9815156125"><ele>88.66</ele><time>2026-04-26T11:15:14Z</time></trkpt><trkpt lat="59.0579467826" lon="29.9815048836"><ele>89.58</ele><time>2026-04-26T11:15:16Z</time></trkpt><trkpt lat="59.0578496363" lon="29.9814653210"><ele>90.86</ele><time>2026-04-26T11:15:28Z</time></trkpt><trkpt lat="59.0578015242" lon="29.9814278539"><ele>89.14</ele><time>2026-04-26T11:15:34Z</time></trkpt><trkpt lat="59.0577339660" lon="29.9814085755"><ele>90.31</ele><time>2026-04-26T11:15:41Z</time></trkpt><trkpt lat="59.0576568525" lon="29.9814032111"><ele>91.91</ele><time>2026-04-26T11:15:48Z</time></trkpt><trkpt lat="59.0576368198" lon="29.9814052228"><ele>88.15</ele><time>2026-04-26T11:15:50Z</time></trkpt><trkpt lat="59.0575394221" lon="29.9813281931"><ele>91.40</ele><time>2026-04-26T11:16:01Z</time></trkpt><trkpt lat="59.0575308725" lon="29.9813229125"><ele>91.67</ele><time>2026-04-26T11:16:02Z</time></trkpt><trkpt lat="59.0575167071" lon="29.9813067354"><ele>89.94</ele><time>2026-04-26T11:16:04Z</time></trkpt><trkpt lat="59.0574978478" lon="29.9812946655"><ele>91.00</ele><time>2026-04-26T11:16:06Z</time></trkpt><trkpt lat="59.0574803296" lon="29.9812831823"><ele>89.02</ele><time>2026-04-26T11:16:08Z</time></trkpt><trkpt lat="59.0572726261" lon="29.9812589586"><ele>92.65</ele><time>2026-04-26T11:16:29Z</time></trkpt><trkpt lat="59.0571245179" lon="29.9812488165"><ele>90.16</ele><time>2026-04-26T11:16:45Z</time></trkpt><trkpt lat="59.0569708776" lon="29.9811820965"><ele>92.49</ele><time>2026-04-26T11:17:03Z</time></trkpt><trkpt lat="59.0567998867" lon="29.9810779933"><ele>92.58</ele><time>2026-04-26T11:17:22Z</time></trkpt><trkpt lat="59.0567083564" lon="29.9810154643"><ele>92.47</ele><time>2026-04-26T11:17:32Z</time></trkpt><trkpt lat="59.0564817935" lon="29.9808942620"><ele>92.10</ele><time>2026-04-26T11:17:54Z</time></trkpt><trkpt lat="59.0564066917" lon="29.9809035659"><ele>91.50</ele><time>2026-04-26T11:18:01Z</time></trkpt><trkpt lat="59.0561994910" lon="29.9808322359"><ele>91.13</ele><time>2026-04-26T11:18:22Z</time></trkpt><trkpt lat="59.0561580006" lon="29.9808002170"><ele>93.85</ele><time>2026-04-26T11:18:28Z</time></trkpt><trkpt lat="59.0560484491" lon="29.9808027316"><ele>94.71</ele><time>2026-04-26T11:18:45Z</time></trkpt><trkpt lat="59.0559957270" lon="29.9808867183"><ele>94.36</ele><time>2026-04-26T11:19:00Z</time></trkpt><trkpt lat="59.0560128260" lon="29.9810260255"><ele>94.68</ele><time>2026-04-26T11:19:08Z</time></trkpt><trkpt lat="59.0560225490" lon="29.9810855370"><ele>94.74</ele><time>2026-04-26T11:19:11Z</time></trkpt><trkpt lat="59.0560587589" lon="29.9814414326"><ele>94.93</ele><time>2026-04-26T11:19:27Z</time></trkpt><trkpt lat="59.0560757741" lon="29.9817760382"><ele>95.41</ele><time>2026-04-26T11:19:40Z</time></trkpt><trkpt lat="59.0561026800" lon="29.9819969013"><ele>96.26</ele><time>2026-04-26T11:19:49Z</time></trkpt><trkpt lat="59.0561207011" lon="29.9821654614"><ele>97.22</ele><time>2026-04-26T11:19:58Z</time></trkpt><trkpt lat="59.0561640356" lon="29.9824004900"><ele>97.45</ele><time>2026-04-26T11:20:10Z</time></trkpt><trkpt lat="59.0561831463" lon="29.9825788569"><ele>97.68</ele><time>2026-04-26T11:20:18Z</time></trkpt><trkpt lat="59.0561818052" lon="29.9826804455"><ele>97.73</ele><time>2026-04-26T11:20:22Z</time></trkpt><trkpt lat="59.0561933722" lon="29.9828064255"><ele>97.86</ele><time>2026-04-26T11:20:28Z</time></trkpt><trkpt lat="59.0562075377" lon="29.9830219243"><ele>98.01</ele><time>2026-04-26T11:20:38Z</time></trkpt><trkpt lat="59.0562156681" lon="29.9830946792"><ele>98.70</ele><time>2026-04-26T11:20:41Z</time></trkpt><trkpt lat="59.0562450048" lon="29.9831992853"><ele>98.64</ele><time>2026-04-26T11:20:46Z</time></trkpt><trkpt lat="59.0562511235" lon="29.9833105970"><ele>98.48</ele><time>2026-04-26T11:20:51Z</time></trkpt><trkpt lat="59.0562629420" lon="29.9836270139"><ele>97.44</ele><time>2026-04-26T11:21:04Z</time></trkpt><trkpt lat="59.0562760178" lon="29.9837233219"><ele>96.57</ele><time>2026-04-26T11:21:08Z</time></trkpt><trkpt lat="59.0562932007" lon="29.9838761240"><ele>96.45</ele><time>2026-04-26T11:21:15Z</time></trkpt><trkpt lat="59.0562936198" lon="29.9839479569"><ele>95.94</ele><time>2026-04-26T11:21:18Z</time></trkpt><trkpt lat="59.0562930331" lon="29.9840841629"><ele>95.60</ele><time>2026-04-26T11:21:24Z</time></trkpt><trkpt lat="59.0563066117" lon="29.9841491226"><ele>95.15</ele><time>2026-04-26T11:21:27Z</time></trkpt><trkpt lat="59.0563254710" lon="29.9843567424"><ele>93.95</ele><time>2026-04-26T11:21:36Z</time></trkpt><trkpt lat="59.0563279018" lon="29.9844268151"><ele>93.41</ele><time>2026-04-26T11:21:40Z</time></trkpt><trkpt lat="59.0563403070" lon="29.9846726563"><ele>92.19</ele><time>2026-04-26T11:21:49Z</time></trkpt><trkpt lat="59.0563400555" lon="29.9846934434"><ele>91.80</ele><time>2026-04-26T11:21:50Z</time></trkpt><trkpt lat="59.0563378762" lon="29.9847639352"><ele>90.42</ele><time>2026-04-26T11:21:55Z</time></trkpt><trkpt lat="59.0563351940" lon="29.9848525319"><ele>89.61</ele><time>2026-04-26T11:22:07Z</time></trkpt><trkpt lat="59.0563403070" lon="29.9848936033"><ele>89.28</ele><time>2026-04-26T11:22:09Z</time></trkpt><trkpt lat="59.0563274827" lon="29.9851407018"><ele>87.87</ele><time>2026-04-26T11:22:20Z</time></trkpt><trkpt lat="59.0563774388" lon="29.9856040534"><ele>85.00</ele><time>2026-04-26T11:22:41Z</time></trkpt><trkpt lat="59.0564500261" lon="29.9861615337"><ele>82.03</ele><time>2026-04-26T11:23:06Z</time></trkpt><trkpt lat="59.0564730763" lon="29.9863333628"><ele>82.40</ele><time>2026-04-26T11:23:14Z</time></trkpt><trkpt lat="59.0565052629" lon="29.9865039345"><ele>81.62</ele><time>2026-04-26T11:23:22Z</time></trkpt><trkpt lat="59.0565024968" lon="29.9866290763"><ele>81.50</ele><time>2026-04-26T11:23:26Z</time></trkpt><trkpt lat="59.0565496031" lon="29.9869848043"><ele>80.96</ele><time>2026-04-26T11:23:42Z</time></trkpt><trkpt lat="59.0565527044" lon="29.9872464035"><ele>80.40</ele><time>2026-04-26T11:23:53Z</time></trkpt><trkpt lat="59.0565518662" lon="29.9875976890"><ele>79.39</ele><time>2026-04-26T11:24:08Z</time></trkpt><trkpt lat="59.0565641038" lon="29.9878631439"><ele>74.40</ele><time>2026-04-26T11:24:18Z</time></trkpt><trkpt lat="59.0565632656" lon="29.9878892954"><ele>78.09</ele><time>2026-04-26T11:24:19Z</time></trkpt><trkpt lat="59.0565727372" lon="29.9879778083"><ele>75.63</ele><time>2026-04-26T11:24:23Z</time></trkpt><trkpt lat="59.0566231124" lon="29.9884057883"><ele>75.82</ele><time>2026-04-26T11:24:40Z</time></trkpt><trkpt lat="59.0566407982" lon="29.9887372926"><ele>75.20</ele><time>2026-04-26T11:24:53Z</time></trkpt><trkpt lat="59.0566555504" lon="29.9888268951"><ele>74.50</ele><time>2026-04-26T11:24:57Z</time></trkpt><trkpt lat="59.0566670336" lon="29.9888993148"><ele>77.47</ele><time>2026-04-26T11:25:00Z</time></trkpt><trkpt lat="59.0567158163" lon="29.9891378637"><ele>77.35</ele><time>2026-04-26T11:25:12Z</time></trkpt><trkpt lat="59.0567240305" lon="29.9893222656"><ele>78.05</ele><time>2026-04-26T11:25:19Z</time></trkpt><trkpt lat="59.0567350946" lon="29.9895161390"><ele>78.02</ele><time>2026-04-26T11:25:27Z</time></trkpt><trkpt lat="59.0567375254" lon="29.9896212481"><ele>76.84</ele><time>2026-04-26T11:25:31Z</time></trkpt><trkpt lat="59.0567412134" lon="29.9896941707"><ele>79.07</ele><time>2026-04-26T11:25:34Z</time></trkpt><trkpt lat="59.0567458235" lon="29.9897550233"><ele>75.98</ele><time>2026-04-26T11:25:37Z</time></trkpt><trkpt lat="59.0567474160" lon="29.9901724420"><ele>76.93</ele><time>2026-04-26T11:25:53Z</time></trkpt><trkpt lat="59.0567274671" lon="29.9903124198"><ele>73.29</ele><time>2026-04-26T11:26:01Z</time></trkpt><trkpt lat="59.0567213483" lon="29.9903243221"><ele>75.48</ele><time>2026-04-26T11:26:02Z</time></trkpt><trkpt lat="59.0567112062" lon="29.9903468695"><ele>78.91</ele><time>2026-04-26T11:26:04Z</time></trkpt><trkpt lat="59.0566668659" lon="29.9903797265"><ele>81.69</ele><time>2026-04-26T11:26:22Z</time></trkpt><trkpt lat="59.0566667821" lon="29.9904141761"><ele>81.85</ele><time>2026-04-26T11:26:46Z</time></trkpt><trkpt lat="59.0566848870" lon="29.9903820734"><ele>82.80</ele><time>2026-04-26T11:27:04Z</time></trkpt><trkpt lat="59.0566756669" lon="29.9903423432"><ele>84.49</ele><time>2026-04-26T11:27:34Z</time></trkpt><trkpt lat="59.0566795226" lon="29.9903326202"><ele>84.66</ele><time>2026-04-26T11:28:02Z</time></trkpt><trkpt lat="59.0566678718" lon="29.9903307762"><ele>83.52</ele><time>2026-04-26T11:28:41Z</time></trkpt><trkpt lat="59.0566659439" lon="29.9903217237"><ele>82.94</ele><time>2026-04-26T11:29:08Z</time></trkpt><trkpt lat="59.0566549636" lon="29.9902979191"><ele>80.14</ele><time>2026-04-26T11:30:17Z</time></trkpt><trkpt lat="59.0566597413" lon="29.9903280940"><ele>77.56</ele><time>2026-04-26T11:31:17Z</time></trkpt></trkseg></trk></gpx>